Observation data for Hobbs on 08/20/2019      Previous  Date  Next       Current Mesonet Observations  Soil Data  Daily Summary Page  Observations in Plain Language
KHO1 200500Z 17008KT 29/10 A3012 RMK A01 T02940097  RH  029%=      5-min Rain = 0
KHO1 200501Z 17010KT 29/10 A3012 RMK A01 T02930097  RH  029%=      5-min Rain = 0
KHO1 200502Z 17010KT 29/10 A3012 RMK A01 T02930097  RH  029%=      5-min Rain = 0
KHO1 200503Z 17007KT 29/10 A3012 RMK A01 T02930097  RH  030%=      5-min Rain = 0
KHO1 200504Z 17008KT 29/10 A3012 RMK A01 T02920097  RH  030%=      5-min Rain = 0
KHO1 200505Z 17008KT 29/10 A3012 RMK A01 T02920097  RH  030%=      5-min Rain = 0
KHO1 200506Z 17008KT 29/10 A3012 RMK A01 T02910097  RH  030%=      5-min Rain = 0
KHO1 200507Z 17008KT 29/10 A3012 RMK A01 T02910097  RH  030%=      5-min Rain = 0
KHO1 200508Z 17008KT 29/10 A3012 RMK A01 T02910097  RH  030%=      5-min Rain = 0
KHO1 200509Z 17008KT 29/10 A3012 RMK A01 T02900097  RH  030%=      5-min Rain = 0
KHO1 200510Z 17007KT 29/10 A3012 RMK A01 T02900097  RH  030%=      5-min Rain = 0
KHO1 200511Z 17008KT 29/10 A3012 RMK A01 T02900097  RH  030%=      5-min Rain = 0
KHO1 200512Z 17008KT 29/10 A3012 RMK A01 T02900097  RH  030%=      5-min Rain = 0
KHO1 200513Z 16008KT 29/10 A3012 RMK A01 T02890097  RH  030%=      5-min Rain = 0
KHO1 200514Z 17008KT 29/10 A3012 RMK A01 T02890097  RH  030%=      5-min Rain = 0
KHO1 200515Z 17008KT 29/10 A3012 RMK A01 T02890097  RH  030%=      5-min Rain = 0
KHO1 200516Z 17009KT 29/10 A3012 RMK A01 T02890098  RH  030%=      5-min Rain = 0
KHO1 200517Z 17008KT 29/10 A3012 RMK A01 T02880098  RH  030%=      5-min Rain = 0
KHO1 200518Z 17009KT 29/10 A3012 RMK A01 T02880098  RH  030%=      5-min Rain = 0
KHO1 200519Z 17008KT 29/10 A3012 RMK A01 T02880098  RH  030%=      5-min Rain = 0
KHO1 200520Z 17008KT 29/10 A3012 RMK A01 T02880098  RH  031%=      5-min Rain = 0
KHO1 200521Z 16009KT 29/10 A3012 RMK A01 T02870098  RH  031%=      5-min Rain = 0
KHO1 200522Z 17007KT 29/10 A3012 RMK A01 T02870098  RH  031%=      5-min Rain = 0
KHO1 200523Z 17009KT 29/10 A3012 RMK A01 T02860098  RH  031%=      5-min Rain = 0
KHO1 200524Z 17007KT 29/10 A3012 RMK A01 T02860098  RH  031%=      5-min Rain = 0
KHO1 200525Z 17007KT 29/10 A3012 RMK A01 T02860098  RH  031%=      5-min Rain = 0
KHO1 200526Z 17007KT 29/10 A3012 RMK A01 T02850098  RH  031%=      5-min Rain = 0
KHO1 200527Z 17010KT 29/10 A3012 RMK A01 T02850099  RH  031%=      5-min Rain = 0
KHO1 200528Z 17009KT 29/10 A3012 RMK A01 T02850099  RH  031%=      5-min Rain = 0
KHO1 200529Z 17011KT 29/10 A3012 RMK A01 T02860099  RH  031%=      5-min Rain = 0
KHO1 200530Z 17009KT 29/10 A3012 RMK A01 T02860099  RH  031%=      5-min Rain = 0
KHO1 200531Z 17009KT 29/10 A3012 RMK A01 T02860099  RH  031%=      5-min Rain = 0
KHO1 200532Z 17011KT 29/10 A3012 RMK A01 T02850099  RH  031%=      5-min Rain = 0
KHO1 200533Z 17011KT 29/10 A3012 RMK A01 T02850099  RH  031%=      5-min Rain = 0
KHO1 200534Z 17009KT 29/10 A3012 RMK A01 T02850099  RH  031%=      5-min Rain = 0
KHO1 200535Z 17010KT 28/10 A3012 RMK A01 T02840100  RH  032%=      5-min Rain = 0
KHO1 200536Z 17008KT 28/10 A3012 RMK A01 T02840100  RH  032%=      5-min Rain = 0
KHO1 200537Z 17010KT 28/10 A3012 RMK A01 T02840100  RH  032%=      5-min Rain = 0
KHO1 200538Z 17011KT 28/10 A3012 RMK A01 T02840101  RH  032%=      5-min Rain = 0
KHO1 200539Z 18010KT 28/10 A3012 RMK A01 T02840100  RH  032%=      5-min Rain = 0
KHO1 200540Z 17009KT 28/10 A3012 RMK A01 T02830100  RH  032%=      5-min Rain = 0
KHO1 200541Z 17010KT 28/10 A3012 RMK A01 T02830101  RH  032%=      5-min Rain = 0
KHO1 200542Z 17011KT 28/10 A3012 RMK A01 T02830101  RH  032%=      5-min Rain = 0
KHO1 200543Z 18010KT 28/10 A3012 RMK A01 T02830101  RH  032%=      5-min Rain = 0
KHO1 200544Z 17009KT 28/10 A3012 RMK A01 T02820101  RH  032%=      5-min Rain = 0
KHO1 200545Z 17010KT 28/10 A3012 RMK A01 T02820101  RH  032%=      5-min Rain = 0
KHO1 200546Z 18008KT 28/10 A3012 RMK A01 T02820101  RH  032%=      5-min Rain = 0
KHO1 200547Z 18009KT 28/10 A3012 RMK A01 T02810101  RH  032%=      5-min Rain = 0
KHO1 200548Z 17010KT 28/10 A3012 RMK A01 T02800101  RH  033%=      5-min Rain = 0
KHO1 200549Z 18009KT 28/10 A3012 RMK A01 T02810101  RH  033%=      5-min Rain = 0
KHO1 200550Z 18009KT 28/10 A3012 RMK A01 T02800101  RH  033%=      5-min Rain = 0
KHO1 200551Z 18009KT 28/10 A3012 RMK A01 T02800101  RH  033%=      5-min Rain = 0
KHO1 200552Z 17008KT 28/10 A3012 RMK A01 T02790101  RH  033%=      5-min Rain = 0
KHO1 200553Z 18010KT 28/10 A3012 RMK A01 T02790101  RH  033%=      5-min Rain = 0
KHO1 200554Z 18010KT 28/10 A3012 RMK A01 T02790101  RH  033%=      5-min Rain = 0
KHO1 200555Z 18010KT 28/10 A3012 RMK A01 T02790102  RH  033%=      5-min Rain = 0
KHO1 200556Z 18010KT 28/10 A3012 RMK A01 T02790102  RH  033%=      5-min Rain = 0
KHO1 200557Z 18009KT 28/10 A3012 RMK A01 T02790101  RH  033%=      5-min Rain = 0
KHO1 200558Z 18008KT 28/10 A3012 RMK A01 T02780101  RH  033%=      5-min Rain = 0
KHO1 200559Z 17010KT 28/10 A3012 RMK A01 T02780102  RH  033%=      5-min Rain = 0
KHO1 200600Z 18009KT 28/10 A3012 RMK A01 T02780102  RH  033%=      5-min Rain = 0
KHO1 200601Z 18010KT 28/10 A3012 RMK A01 T02780102  RH  033%=      5-min Rain = 0
KHO1 200602Z 17008KT 28/10 A3012 RMK A01 T02780102  RH  033%=      5-min Rain = 0
KHO1 200603Z 18010KT 28/10 A3012 RMK A01 T02780102  RH  033%=      5-min Rain = 0
KHO1 200604Z 17010KT 28/10 A3012 RMK A01 T02780102  RH  033%=      5-min Rain = 0
KHO1 200605Z 18010KT 28/10 A3012 RMK A01 T02780102  RH  033%=      5-min Rain = 0
KHO1 200606Z 17009KT 28/10 A3012 RMK A01 T02780102  RH  033%=      5-min Rain = 0
KHO1 200607Z 17010KT 28/10 A3013 RMK A01 T02780102  RH  033%=      5-min Rain = 0
KHO1 200608Z 18009KT 28/10 A3013 RMK A01 T02780103  RH  033%=      5-min Rain = 0
KHO1 200609Z 18009KT 28/10 A3012 RMK A01 T02770102  RH  033%=      5-min Rain = 0
KHO1 200610Z 18010KT 28/10 A3012 RMK A01 T02770103  RH  034%=      5-min Rain = 0
KHO1 200611Z 17009KT 28/10 A3012 RMK A01 T02770103  RH  034%=      5-min Rain = 0
KHO1 200612Z 17008KT 28/10 A3012 RMK A01 T02770103  RH  034%=      5-min Rain = 0
KHO1 200613Z 18010KT 28/10 A3012 RMK A01 T02770103  RH  034%=      5-min Rain = 0
KHO1 200614Z 18009KT 28/10 A3012 RMK A01 T02770103  RH  034%=      5-min Rain = 0
KHO1 200615Z 18009KT 28/10 A3012 RMK A01 T02770103  RH  034%=      5-min Rain = 0
KHO1 200616Z 18009KT 28/10 A3012 RMK A01 T02760103  RH  034%=      5-min Rain = 0
KHO1 200617Z 17010KT 28/10 A3012 RMK A01 T02760103  RH  034%=      5-min Rain = 0
KHO1 200618Z 17010KT 28/10 A3012 RMK A01 T02760103  RH  034%=      5-min Rain = 0
KHO1 200619Z 17011KT 28/10 A3012 RMK A01 T02760103  RH  034%=      5-min Rain = 0
KHO1 200620Z 17011KT 28/10 A3012 RMK A01 T02770103  RH  034%=      5-min Rain = 0
KHO1 200621Z 17009KT 28/10 A3012 RMK A01 T02760103  RH  034%=      5-min Rain = 0
KHO1 200622Z 17010KT 28/10 A3012 RMK A01 T02760103  RH  034%=      5-min Rain = 0
KHO1 200623Z 17011KT 28/10 A3012 RMK A01 T02760103  RH  034%=      5-min Rain = 0
KHO1 200624Z 17010KT 28/10 A3012 RMK A01 T02760103  RH  034%=      5-min Rain = 0
KHO1 200625Z 17010KT 28/10 A3012 RMK A01 T02760103  RH  034%=      5-min Rain = 0
KHO1 200626Z 17011KT 28/10 A3012 RMK A01 T02760103  RH  034%=      5-min Rain = 0
KHO1 200627Z 17012KT 28/10 A3012 RMK A01 T02760103  RH  034%=      5-min Rain = 0
KHO1 200628Z 17011KT 28/10 A3012 RMK A01 T02760103  RH  034%=      5-min Rain = 0
KHO1 200629Z 17012KT 28/10 A3012 RMK A01 T02760103  RH  034%=      5-min Rain = 0
KHO1 200630Z 17012KT 28/10 A3012 RMK A01 T02760103  RH  034%=      5-min Rain = 0
KHO1 200631Z 17011KT 28/10 A3012 RMK A01 T02760103  RH  034%=      5-min Rain = 0
KHO1 200632Z 17011KT 28/10 A3013 RMK A01 T02760102  RH  034%=      5-min Rain = 0
KHO1 200633Z 17011KT 28/10 A3013 RMK A01 T02760102  RH  034%=      5-min Rain = 0
KHO1 200634Z 17012KT 28/10 A3013 RMK A01 T02760102  RH  034%=      5-min Rain = 0
KHO1 200635Z 17009KT 28/10 A3013 RMK A01 T02760102  RH  034%=      5-min Rain = 0
KHO1 200636Z 17010KT 28/10 A3013 RMK A01 T02760102  RH  034%=      5-min Rain = 0
KHO1 200637Z 17011KT 28/10 A3013 RMK A01 T02760102  RH  034%=      5-min Rain = 0
KHO1 200638Z 17011KT 28/10 A3013 RMK A01 T02760102  RH  034%=      5-min Rain = 0
KHO1 200639Z 17010KT 28/10 A3013 RMK A01 T02760101  RH  034%=      5-min Rain = 0
KHO1 200640Z 17010KT 28/10 A3013 RMK A01 T02760101  RH  034%=      5-min Rain = 0
KHO1 200641Z 17011KT 28/10 A3012 RMK A01 T02750101  RH  034%=      5-min Rain = 0
KHO1 200642Z 17011KT 28/10 A3012 RMK A01 T02760101  RH  034%=      5-min Rain = 0
KHO1 200643Z 17009KT 28/10 A3012 RMK A01 T02760101  RH  034%=      5-min Rain = 0
KHO1 200644Z 17011KT 28/10 A3013 RMK A01 T02750101  RH  034%=      5-min Rain = 0
KHO1 200645Z 17011KT 28/10 A3012 RMK A01 T02750101  RH  034%=      5-min Rain = 0
KHO1 200646Z 17011KT 28/10 A3013 RMK A01 T02750101  RH  034%=      5-min Rain = 0
KHO1 200647Z 18012KT 28/10 A3013 RMK A01 T02750100  RH  033%=      5-min Rain = 0
KHO1 200648Z 18010KT 28/10 A3013 RMK A01 T02750100  RH  033%=      5-min Rain = 0
KHO1 200649Z 18009KT 28/10 A3013 RMK A01 T02750100  RH  033%=      5-min Rain = 0
KHO1 200650Z 18010KT 28/10 A3013 RMK A01 T02750100  RH  033%=      5-min Rain = 0
KHO1 200651Z 17010KT 28/10 A3013 RMK A01 T02750100  RH  033%=      5-min Rain = 0
KHO1 200652Z 18010KT 28/10 A3013 RMK A01 T02750100  RH  033%=      5-min Rain = 0
KHO1 200653Z 18011KT 28/10 A3013 RMK A01 T02750100  RH  033%=      5-min Rain = 0
KHO1 200654Z 18010KT 28/10 A3013 RMK A01 T02750100  RH  033%=      5-min Rain = 0
KHO1 200655Z 18013KT 28/10 A3013 RMK A01 T02750099  RH  033%=      5-min Rain = 0
KHO1 200656Z 18009KT 28/10 A3013 RMK A01 T02750099  RH  033%=      5-min Rain = 0
KHO1 200657Z 18012KT 28/10 A3013 RMK A01 T02750099  RH  033%=      5-min Rain = 0
KHO1 200658Z 18009KT 28/10 A3013 RMK A01 T02750099  RH  033%=      5-min Rain = 0
KHO1 200659Z 18010KT 28/10 A3013 RMK A01 T02750099  RH  033%=      5-min Rain = 0
KHO1 200700Z 18011KT 28/10 A3013 RMK A01 T02750099  RH  033%=      5-min Rain = 0
KHO1 200701Z 18012KT 28/10 A3013 RMK A01 T02750099  RH  033%=      5-min Rain = 0
KHO1 200702Z 18010KT 28/10 A3013 RMK A01 T02750099  RH  033%=      5-min Rain = 0
KHO1 200703Z 18011KT 28/10 A3013 RMK A01 T02750099  RH  033%=      5-min Rain = 0
KHO1 200704Z 18010KT 28/10 A3013 RMK A01 T02750099  RH  033%=      5-min Rain = 0
KHO1 200705Z 18011KT 27/10 A3013 RMK A01 T02740099  RH  033%=      5-min Rain = 0
KHO1 200706Z 18011KT 27/10 A3013 RMK A01 T02740099  RH  033%=      5-min Rain = 0
KHO1 200707Z 17012KT 27/10 A3013 RMK A01 T02740099  RH  033%=      5-min Rain = 0
KHO1 200708Z 18012KT 28/10 A3013 RMK A01 T02750099  RH  033%=      5-min Rain = 0
KHO1 200709Z 18013KT 28/10 A3013 RMK A01 T02750099  RH  033%=      5-min Rain = 0
KHO1 200710Z 18011KT 28/10 A3013 RMK A01 T02750099  RH  033%=      5-min Rain = 0
KHO1 200711Z 18011KT 28/10 A3013 RMK A01 T02750098  RH  033%=      5-min Rain = 0
KHO1 200712Z 18010KT 28/10 A3013 RMK A01 T02750098  RH  033%=      5-min Rain = 0
KHO1 200713Z 18011KT 28/10 A3013 RMK A01 T02750098  RH  033%=      5-min Rain = 0
KHO1 200714Z 18011KT 28/10 A3013 RMK A01 T02750098  RH  033%=      5-min Rain = 0
KHO1 200715Z 17011KT 28/10 A3013 RMK A01 T02750099  RH  033%=      5-min Rain = 0
KHO1 200716Z 18011KT 28/10 A3013 RMK A01 T02750099  RH  033%=      5-min Rain = 0
KHO1 200717Z 18011KT 28/10 A3013 RMK A01 T02750099  RH  033%=      5-min Rain = 0
KHO1 200718Z 17012KT 28/10 A3013 RMK A01 T02750099  RH  033%=      5-min Rain = 0
KHO1 200719Z 18012KT 28/10 A3013 RMK A01 T02750099  RH  033%=      5-min Rain = 0
KHO1 200720Z 18010KT 28/10 A3013 RMK A01 T02750099  RH  033%=      5-min Rain = 0
KHO1 200721Z 17010KT 28/10 A3013 RMK A01 T02750099  RH  033%=      5-min Rain = 0
KHO1 200722Z 18009KT 28/10 A3013 RMK A01 T02750099  RH  033%=      5-min Rain = 0
KHO1 200723Z 18011KT 28/10 A3013 RMK A01 T02750099  RH  033%=      5-min Rain = 0
KHO1 200724Z 18011KT 27/10 A3013 RMK A01 T02740099  RH  033%=      5-min Rain = 0
KHO1 200725Z 18011KT 28/10 A3013 RMK A01 T02750099  RH  033%=      5-min Rain = 0
KHO1 200726Z 18012KT 28/10 A3013 RMK A01 T02750100  RH  033%=      5-min Rain = 0
KHO1 200727Z 18011KT 28/10 A3013 RMK A01 T02750100  RH  033%=      5-min Rain = 0
KHO1 200728Z 18010KT 28/10 A3013 RMK A01 T02750099  RH  033%=      5-min Rain = 0
KHO1 200729Z 18011KT 28/10 A3013 RMK A01 T02750099  RH  033%=      5-min Rain = 0
KHO1 200730Z 18011KT 28/10 A3013 RMK A01 T02750099  RH  033%=      5-min Rain = 0
KHO1 200731Z 18010KT 28/10 A3013 RMK A01 T02750099  RH  033%=      5-min Rain = 0
KHO1 200732Z 18010KT 28/10 A3013 RMK A01 T02750099  RH  033%=      5-min Rain = 0
KHO1 200733Z 18011KT 28/10 A3013 RMK A01 T02750099  RH  033%=      5-min Rain = 0
KHO1 200734Z 18011KT 28/10 A3013 RMK A01 T02750099  RH  033%=      5-min Rain = 0
KHO1 200735Z 18012KT 28/10 A3013 RMK A01 T02750099  RH  033%=      5-min Rain = 0
KHO1 200736Z 18013KT 28/10 A3013 RMK A01 T02750099  RH  033%=      5-min Rain = 0
KHO1 200737Z 18012KT 28/10 A3013 RMK A01 T02750099  RH  033%=      5-min Rain = 0
KHO1 200738Z 18012KT 28/10 A3013 RMK A01 T02750099  RH  033%=      5-min Rain = 0
KHO1 200739Z 18013KT 28/10 A3013 RMK A01 T02750099  RH  033%=      5-min Rain = 0
KHO1 200740Z 18012KT 28/10 A3013 RMK A01 T02750099  RH  033%=      5-min Rain = 0
KHO1 200741Z 18012KT 27/10 A3013 RMK A01 T02740099  RH  033%=      5-min Rain = 0
KHO1 200742Z 18012KT 27/10 A3013 RMK A01 T02740099  RH  033%=      5-min Rain = 0
KHO1 200743Z 18013KT 27/10 A3013 RMK A01 T02740099  RH  033%=      5-min Rain = 0
KHO1 200744Z 18013KT 27/10 A3013 RMK A01 T02740099  RH  033%=      5-min Rain = 0
KHO1 200745Z 18010KT 27/10 A3013 RMK A01 T02740099  RH  033%=      5-min Rain = 0
KHO1 200746Z 18013KT 27/10 A3013 RMK A01 T02740099  RH  033%=      5-min Rain = 0
KHO1 200747Z 18012G17KT 27/10 A3013 RMK A01 T02740099  RH  033%=      5-min Rain = 0
KHO1 200748Z 18012KT 27/10 A3013 RMK A01 T02740099  RH  033%=      5-min Rain = 0
KHO1 200749Z 18012KT 27/10 A3013 RMK A01 T02730099  RH  034%=      5-min Rain = 0
KHO1 200750Z 18011KT 27/10 A3013 RMK A01 T02730099  RH  034%=      5-min Rain = 0
KHO1 200751Z 18010KT 27/10 A3013 RMK A01 T02730099  RH  034%=      5-min Rain = 0
KHO1 200752Z 18012KT 27/10 A3013 RMK A01 T02730099  RH  034%=      5-min Rain = 0
KHO1 200753Z 18011KT 27/10 A3013 RMK A01 T02720099  RH  034%=      5-min Rain = 0
KHO1 200754Z 17010KT 27/10 A3013 RMK A01 T02720099  RH  034%=      5-min Rain = 0
KHO1 200755Z 18011KT 27/10 A3013 RMK A01 T02720100  RH  034%=      5-min Rain = 0
KHO1 200756Z 18011KT 27/10 A3013 RMK A01 T02720100  RH  034%=      5-min Rain = 0
KHO1 200757Z 18008KT 27/10 A3013 RMK A01 T02720100  RH  034%=      5-min Rain = 0
KHO1 200758Z 18011KT 27/10 A3013 RMK A01 T02710100  RH  034%=      5-min Rain = 0
KHO1 200759Z 18010KT 27/10 A3013 RMK A01 T02710100  RH  034%=      5-min Rain = 0
KHO1 200800Z 18012KT 27/10 A3013 RMK A01 T02710100  RH  034%=      5-min Rain = 0
KHO1 200801Z 18010KT 27/10 A3013 RMK A01 T02710100  RH  034%=      5-min Rain = 0
KHO1 200802Z 18012KT 27/10 A3013 RMK A01 T02710100  RH  034%=      5-min Rain = 0
KHO1 200803Z 18011KT 27/10 A3013 RMK A01 T02710101  RH  034%=      5-min Rain = 0
KHO1 200804Z 18012KT 27/10 A3013 RMK A01 T02710100  RH  034%=      5-min Rain = 0
KHO1 200805Z 18011KT 27/10 A3013 RMK A01 T02710101  RH  034%=      5-min Rain = 0
KHO1 200806Z 18009KT 27/10 A3013 RMK A01 T02700101  RH  034%=      5-min Rain = 0
KHO1 200807Z 18009KT 27/10 A3013 RMK A01 T02700100  RH  035%=      5-min Rain = 0
KHO1 200808Z 18008G13KT 27/10 A3013 RMK A01 T02700101  RH  035%=      5-min Rain = 0
KHO1 200809Z 18009KT 27/10 A3013 RMK A01 T02690101  RH  035%=      5-min Rain = 0
KHO1 200810Z 18010KT 27/10 A3013 RMK A01 T02690101  RH  035%=      5-min Rain = 0
KHO1 200811Z 18010KT 27/10 A3013 RMK A01 T02690101  RH  035%=      5-min Rain = 0
KHO1 200812Z 18009KT 27/10 A3013 RMK A01 T02690102  RH  035%=      5-min Rain = 0
KHO1 200813Z 18010KT 27/10 A3013 RMK A01 T02690102  RH  035%=      5-min Rain = 0
KHO1 200814Z 18011KT 27/10 A3013 RMK A01 T02690102  RH  035%=      5-min Rain = 0
KHO1 200815Z 18010KT 27/10 A3013 RMK A01 T02690102  RH  035%=      5-min Rain = 0
KHO1 200816Z 18010KT 27/10 A3013 RMK A01 T02690102  RH  035%=      5-min Rain = 0
KHO1 200817Z 18010KT 27/10 A3013 RMK A01 T02690103  RH  035%=      5-min Rain = 0
KHO1 200818Z 18010KT 27/10 A3013 RMK A01 T02690103  RH  035%=      5-min Rain = 0
KHO1 200819Z 17010KT 27/10 A3013 RMK A01 T02690103  RH  035%=      5-min Rain = 0
KHO1 200820Z 18010KT 27/10 A3013 RMK A01 T02680103  RH  035%=      5-min Rain = 0
KHO1 200821Z 18011KT 27/10 A3013 RMK A01 T02690104  RH  036%=      5-min Rain = 0
KHO1 200822Z 18010KT 27/10 A3013 RMK A01 T02690103  RH  035%=      5-min Rain = 0
KHO1 200823Z 18012KT 27/10 A3013 RMK A01 T02680104  RH  036%=      5-min Rain = 0
KHO1 200824Z 18011KT 27/10 A3013 RMK A01 T02680104  RH  036%=      5-min Rain = 0
KHO1 200825Z 18010KT 27/10 A3013 RMK A01 T02680104  RH  036%=      5-min Rain = 0
KHO1 200826Z 17010KT 27/10 A3013 RMK A01 T02680104  RH  036%=      5-min Rain = 0
KHO1 200827Z 18009KT 27/10 A3013 RMK A01 T02680104  RH  036%=      5-min Rain = 0
KHO1 200828Z 18012KT 27/10 A3013 RMK A01 T02670104  RH  036%=      5-min Rain = 0
KHO1 200829Z 18011KT 27/11 A3013 RMK A01 T02670105  RH  036%=      5-min Rain = 0
KHO1 200830Z 18010KT 27/11 A3013 RMK A01 T02670105  RH  036%=      5-min Rain = 0
KHO1 200831Z 18010KT 27/11 A3013 RMK A01 T02670105  RH  036%=      5-min Rain = 0
KHO1 200832Z 17011KT 27/11 A3013 RMK A01 T02670105  RH  036%=      5-min Rain = 0
KHO1 200833Z 18011KT 27/11 A3013 RMK A01 T02670105  RH  036%=      5-min Rain = 0
KHO1 200834Z 17011KT 27/11 A3013 RMK A01 T02670106  RH  036%=      5-min Rain = 0
KHO1 200835Z 18012KT 27/11 A3013 RMK A01 T02670106  RH  036%=      5-min Rain = 0
KHO1 200836Z 18010KT 27/11 A3013 RMK A01 T02670106  RH  036%=      5-min Rain = 0
KHO1 200837Z 17012KT 27/11 A3013 RMK A01 T02670106  RH  037%=      5-min Rain = 0
KHO1 200838Z 18010KT 27/11 A3013 RMK A01 T02670106  RH  037%=      5-min Rain = 0
KHO1 200839Z 17009G14KT 27/11 A3013 RMK A01 T02660107  RH  037%=      5-min Rain = 0
KHO1 200840Z 18010KT 27/11 A3013 RMK A01 T02660107  RH  037%=      5-min Rain = 0
KHO1 200841Z 18011KT 27/11 A3013 RMK A01 T02660107  RH  037%=      5-min Rain = 0
KHO1 200842Z 18010KT 27/11 A3013 RMK A01 T02660107  RH  037%=      5-min Rain = 0
KHO1 200843Z 17011KT 27/11 A3013 RMK A01 T02660107  RH  037%=      5-min Rain = 0
KHO1 200844Z 18011KT 27/11 A3013 RMK A01 T02660108  RH  037%=      5-min Rain = 0
KHO1 200845Z 18010KT 27/11 A3013 RMK A01 T02650108  RH  037%=      5-min Rain = 0
KHO1 200846Z 17011KT 27/11 A3013 RMK A01 T02650108  RH  037%=      5-min Rain = 0
KHO1 200847Z 18012KT 27/11 A3013 RMK A01 T02650109  RH  037%=      5-min Rain = 0
KHO1 200848Z 18010KT 27/11 A3013 RMK A01 T02660109  RH  037%=      5-min Rain = 0
KHO1 200849Z 18011KT 27/11 A3013 RMK A01 T02650109  RH  038%=      5-min Rain = 0
KHO1 200850Z 18009KT 27/11 A3013 RMK A01 T02650109  RH  038%=      5-min Rain = 0
KHO1 200851Z 17011KT 27/11 A3013 RMK A01 T02650110  RH  038%=      5-min Rain = 0
KHO1 200852Z 18012KT 27/11 A3013 RMK A01 T02650110  RH  038%=      5-min Rain = 0
KHO1 200853Z 18011KT 27/11 A3013 RMK A01 T02650110  RH  038%=      5-min Rain = 0
KHO1 200854Z 18010KT 27/11 A3013 RMK A01 T02650111  RH  038%=      5-min Rain = 0
KHO1 200855Z 18010KT 27/11 A3013 RMK A01 T02650111  RH  038%=      5-min Rain = 0
KHO1 200856Z 18010KT 27/11 A3013 RMK A01 T02650111  RH  038%=      5-min Rain = 0
KHO1 200857Z 18011KT 27/11 A3013 RMK A01 T02650112  RH  038%=      5-min Rain = 0
KHO1 200858Z 18010KT 27/11 A3013 RMK A01 T02650112  RH  038%=      5-min Rain = 0
KHO1 200859Z 18010KT 27/11 A3013 RMK A01 T02650112  RH  038%=      5-min Rain = 0
KHO1 200900Z 18012KT 27/11 A3013 RMK A01 T02650113  RH  039%=      5-min Rain = 0
KHO1 200901Z 18011KT 27/11 A3013 RMK A01 T02650113  RH  039%=      5-min Rain = 0
KHO1 200902Z 18009KT 27/11 A3013 RMK A01 T02650113  RH  039%=      5-min Rain = 0
KHO1 200903Z 18009KT 27/11 A3013 RMK A01 T02650113  RH  039%=      5-min Rain = 0
KHO1 200904Z 18011KT 26/11 A3013 RMK A01 T02640113  RH  039%=      5-min Rain = 0
KHO1 200905Z 18011KT 26/11 A3013 RMK A01 T02640113  RH  039%=      5-min Rain = 0
KHO1 200906Z 18009KT 26/11 A3013 RMK A01 T02640114  RH  039%=      5-min Rain = 0
KHO1 200907Z 18010KT 26/11 A3013 RMK A01 T02640114  RH  039%=      5-min Rain = 0
KHO1 200908Z 18011KT 26/11 A3013 RMK A01 T02640114  RH  039%=      5-min Rain = 0
KHO1 200909Z 18011KT 26/12 A3013 RMK A01 T02640115  RH  039%=      5-min Rain = 0
KHO1 200910Z 18010KT 26/12 A3013 RMK A01 T02640115  RH  039%=      5-min Rain = 0
KHO1 200911Z 18009KT 26/12 A3013 RMK A01 T02640115  RH  039%=      5-min Rain = 0
KHO1 200912Z 17010KT 26/12 A3013 RMK A01 T02640115  RH  039%=      5-min Rain = 0
KHO1 200913Z 18009KT 26/12 A3013 RMK A01 T02640116  RH  040%=      5-min Rain = 0
KHO1 200914Z 18011KT 26/12 A3013 RMK A01 T02640116  RH  040%=      5-min Rain = 0
KHO1 200915Z 18013KT 26/12 A3013 RMK A01 T02640117  RH  040%=      5-min Rain = 0
KHO1 200916Z 18011KT 26/12 A3013 RMK A01 T02640116  RH  040%=      5-min Rain = 0
KHO1 200917Z 18011KT 26/12 A3013 RMK A01 T02640117  RH  040%=      5-min Rain = 0
KHO1 200918Z 18012KT 26/12 A3013 RMK A01 T02640117  RH  040%=      5-min Rain = 0
KHO1 200919Z 18010KT 26/12 A3013 RMK A01 T02640117  RH  040%=      5-min Rain = 0
KHO1 200920Z 18008KT 26/12 A3013 RMK A01 T02630116  RH  040%=      5-min Rain = 0
KHO1 200921Z 17009KT 26/12 A3013 RMK A01 T02630117  RH  040%=      5-min Rain = 0
KHO1 200922Z 17010KT 26/12 A3013 RMK A01 T02630117  RH  040%=      5-min Rain = 0
KHO1 200923Z 18010KT 26/12 A3013 RMK A01 T02630117  RH  040%=      5-min Rain = 0
KHO1 200924Z 18010KT 26/12 A3013 RMK A01 T02620117  RH  040%=      5-min Rain = 0
KHO1 200925Z 18010KT 26/12 A3013 RMK A01 T02620117  RH  040%=      5-min Rain = 0
KHO1 200926Z 17009KT 26/12 A3013 RMK A01 T02620117  RH  040%=      5-min Rain = 0
KHO1 200927Z 17008KT 26/12 A3013 RMK A01 T02620117  RH  040%=      5-min Rain = 0
KHO1 200928Z 17009KT 26/12 A3013 RMK A01 T02610118  RH  041%=      5-min Rain = 0
KHO1 200929Z 17010KT 26/12 A3013 RMK A01 T02620118  RH  041%=      5-min Rain = 0
KHO1 200930Z 17009KT 26/12 A3013 RMK A01 T02620118  RH  041%=      5-min Rain = 0
KHO1 200931Z 17010KT 26/12 A3013 RMK A01 T02620118  RH  041%=      5-min Rain = 0
KHO1 200932Z 17009KT 26/12 A3013 RMK A01 T02610118  RH  041%=      5-min Rain = 0
KHO1 200933Z 17009KT 26/12 A3013 RMK A01 T02610119  RH  041%=      5-min Rain = 0
KHO1 200934Z 17009KT 26/12 A3013 RMK A01 T02610119  RH  041%=      5-min Rain = 0
KHO1 200935Z 17009KT 26/12 A3013 RMK A01 T02610119  RH  041%=      5-min Rain = 0
KHO1 200936Z 17008KT 26/12 A3013 RMK A01 T02610119  RH  041%=      5-min Rain = 0
KHO1 200937Z 17009KT 26/12 A3013 RMK A01 T02610119  RH  041%=      5-min Rain = 0
KHO1 200938Z 17009KT 26/12 A3013 RMK A01 T02610119  RH  041%=      5-min Rain = 0
KHO1 200939Z 17009KT 26/12 A3013 RMK A01 T02600120  RH  041%=      5-min Rain = 0
KHO1 200940Z 17009KT 26/12 A3013 RMK A01 T02600120  RH  042%=      5-min Rain = 0
KHO1 200941Z 17009KT 26/12 A3013 RMK A01 T02600120  RH  042%=      5-min Rain = 0
KHO1 200942Z 17010KT 26/12 A3013 RMK A01 T02600121  RH  042%=      5-min Rain = 0
KHO1 200943Z 17009KT 26/12 A3013 RMK A01 T02600120  RH  042%=      5-min Rain = 0
KHO1 200944Z 17009KT 26/12 A3013 RMK A01 T02600120  RH  042%=      5-min Rain = 0
KHO1 200945Z 17008KT 26/12 A3013 RMK A01 T02600121  RH  042%=      5-min Rain = 0
KHO1 200946Z 17009KT 26/12 A3013 RMK A01 T02600121  RH  042%=      5-min Rain = 0
KHO1 200947Z 17008KT 26/12 A3013 RMK A01 T02600121  RH  042%=      5-min Rain = 0
KHO1 200948Z 17010KT 26/12 A3013 RMK A01 T02600121  RH  042%=      5-min Rain = 0
KHO1 200949Z 17010KT 26/12 A3013 RMK A01 T02600121  RH  042%=      5-min Rain = 0
KHO1 200950Z 17010KT 26/12 A3013 RMK A01 T02600122  RH  042%=      5-min Rain = 0
KHO1 200951Z 17008KT 26/12 A3013 RMK A01 T02600122  RH  042%=      5-min Rain = 0
KHO1 200952Z 17011KT 26/12 A3013 RMK A01 T02600122  RH  042%=      5-min Rain = 0
KHO1 200953Z 17010KT 26/12 A3013 RMK A01 T02600122  RH  042%=      5-min Rain = 0
KHO1 200954Z 17010KT 26/12 A3013 RMK A01 T02600122  RH  042%=      5-min Rain = 0
KHO1 200955Z 17010KT 26/12 A3013 RMK A01 T02600122  RH  042%=      5-min Rain = 0
KHO1 200956Z 17009KT 26/12 A3013 RMK A01 T02600122  RH  042%=      5-min Rain = 0
KHO1 200957Z 17009KT 26/12 A3013 RMK A01 T02590123  RH  043%=      5-min Rain = 0
KHO1 200958Z 17009KT 26/12 A3013 RMK A01 T02590123  RH  043%=      5-min Rain = 0
KHO1 200959Z 17008KT 26/12 A3013 RMK A01 T02590123  RH  043%=      5-min Rain = 0
KHO1 201000Z 17009KT 26/12 A3013 RMK A01 T02590123  RH  043%=      5-min Rain = 0
KHO1 201001Z 17009KT 26/12 A3013 RMK A01 T02590124  RH  043%=      5-min Rain = 0
KHO1 201002Z 17007KT 26/12 A3013 RMK A01 T02590124  RH  043%=      5-min Rain = 0
KHO1 201003Z 17008KT 26/12 A3013 RMK A01 T02590124  RH  043%=      5-min Rain = 0
KHO1 201004Z 17010KT 26/12 A3013 RMK A01 T02590124  RH  043%=      5-min Rain = 0
KHO1 201005Z 17008KT 26/13 A3013 RMK A01 T02590125  RH  043%=      5-min Rain = 0
KHO1 201006Z 17008KT 26/13 A3013 RMK A01 T02590125  RH  043%=      5-min Rain = 0
KHO1 201007Z 17009KT 26/13 A3013 RMK A01 T02590125  RH  043%=      5-min Rain = 0
KHO1 201008Z 17010KT 26/13 A3013 RMK A01 T02590125  RH  043%=      5-min Rain = 0
KHO1 201009Z 17010KT 26/13 A3013 RMK A01 T02590125  RH  043%=      5-min Rain = 0
KHO1 201010Z 18010KT 26/13 A3013 RMK A01 T02590126  RH  043%=      5-min Rain = 0
KHO1 201011Z 18009KT 26/13 A3014 RMK A01 T02590125  RH  043%=      5-min Rain = 0
KHO1 201012Z 17008KT 26/13 A3013 RMK A01 T02590125  RH  044%=      5-min Rain = 0
KHO1 201013Z 17009KT 26/13 A3013 RMK A01 T02580126  RH  044%=      5-min Rain = 0
KHO1 201014Z 17010KT 26/13 A3013 RMK A01 T02590126  RH  044%=      5-min Rain = 0
KHO1 201015Z 17008KT 26/13 A3014 RMK A01 T02590126  RH  044%=      5-min Rain = 0
KHO1 201016Z 17010KT 26/13 A3013 RMK A01 T02580126  RH  044%=      5-min Rain = 0
KHO1 201017Z 17009KT 26/13 A3013 RMK A01 T02580126  RH  044%=      5-min Rain = 0
KHO1 201018Z 17008KT 26/13 A3014 RMK A01 T02580126  RH  044%=      5-min Rain = 0
KHO1 201019Z 17008KT 26/13 A3014 RMK A01 T02580126  RH  044%=      5-min Rain = 0
KHO1 201020Z 17008KT 26/13 A3014 RMK A01 T02570126  RH  044%=      5-min Rain = 0
KHO1 201021Z 17009KT 26/13 A3014 RMK A01 T02570126  RH  044%=      5-min Rain = 0
KHO1 201022Z 17010KT 26/13 A3014 RMK A01 T02570126  RH  044%=      5-min Rain = 0
KHO1 201023Z 17011KT 26/13 A3014 RMK A01 T02580126  RH  044%=      5-min Rain = 0
KHO1 201024Z 17010KT 26/13 A3014 RMK A01 T02580126  RH  044%=      5-min Rain = 0
KHO1 201025Z 17010KT 26/13 A3014 RMK A01 T02570126  RH  044%=      5-min Rain = 0
KHO1 201026Z 17009KT 26/13 A3014 RMK A01 T02570126  RH  044%=      5-min Rain = 0
KHO1 201027Z 17008KT 26/13 A3014 RMK A01 T02570125  RH  044%=      5-min Rain = 0
KHO1 201028Z 17008KT 26/13 A3014 RMK A01 T02570125  RH  044%=      5-min Rain = 0
KHO1 201029Z 17009KT 26/13 A3014 RMK A01 T02570126  RH  044%=      5-min Rain = 0
KHO1 201030Z 17009KT 26/13 A3014 RMK A01 T02570126  RH  044%=      5-min Rain = 0
KHO1 201031Z 17008KT 26/13 A3014 RMK A01 T02560125  RH  044%=      5-min Rain = 0
KHO1 201032Z 17009KT 26/13 A3014 RMK A01 T02560125  RH  044%=      5-min Rain = 0
KHO1 201033Z 16008KT 26/13 A3014 RMK A01 T02560125  RH  044%=      5-min Rain = 0
KHO1 201034Z 17008KT 26/12 A3014 RMK A01 T02560124  RH  044%=      5-min Rain = 0
KHO1 201035Z 17008KT 26/12 A3014 RMK A01 T02560124  RH  044%=      5-min Rain = 0
KHO1 201036Z 17007KT 26/12 A3014 RMK A01 T02560124  RH  044%=      5-min Rain = 0
KHO1 201037Z 17008KT 26/12 A3014 RMK A01 T02560124  RH  044%=      5-min Rain = 0
KHO1 201038Z 16007KT 26/12 A3014 RMK A01 T02550123  RH  044%=      5-min Rain = 0
KHO1 201039Z 17009KT 26/12 A3014 RMK A01 T02550124  RH  044%=      5-min Rain = 0
KHO1 201040Z 17008KT 26/12 A3014 RMK A01 T02550124  RH  044%=      5-min Rain = 0
KHO1 201041Z 17006KT 26/12 A3014 RMK A01 T02550123  RH  044%=      5-min Rain = 0
KHO1 201042Z 17007KT 26/12 A3014 RMK A01 T02550124  RH  044%=      5-min Rain = 0
KHO1 201043Z 17006KT 25/12 A3014 RMK A01 T02540124  RH  044%=      5-min Rain = 0
KHO1 201044Z 17006KT 25/13 A3014 RMK A01 T02540125  RH  045%=      5-min Rain = 0
KHO1 201045Z 17007KT 25/13 A3014 RMK A01 T02540125  RH  045%=      5-min Rain = 0
KHO1 201046Z 17006KT 25/13 A3014 RMK A01 T02540125  RH  045%=      5-min Rain = 0
KHO1 201047Z 17006KT 25/13 A3014 RMK A01 T02540125  RH  045%=      5-min Rain = 0
KHO1 201048Z 17006KT 25/13 A3014 RMK A01 T02530126  RH  045%=      5-min Rain = 0
KHO1 201049Z 17005KT 25/13 A3014 RMK A01 T02530126  RH  045%=      5-min Rain = 0
KHO1 201050Z 17006KT 25/13 A3014 RMK A01 T02530126  RH  045%=      5-min Rain = 0
KHO1 201051Z 17008KT 25/13 A3014 RMK A01 T02530127  RH  046%=      5-min Rain = 0
KHO1 201052Z 16008KT 25/13 A3014 RMK A01 T02530129  RH  046%=      5-min Rain = 0
KHO1 201053Z 17007KT 25/13 A3014 RMK A01 T02530128  RH  046%=      5-min Rain = 0
KHO1 201054Z 17007KT 25/13 A3014 RMK A01 T02530128  RH  046%=      5-min Rain = 0
KHO1 201055Z 17008KT 25/13 A3014 RMK A01 T02520129  RH  046%=      5-min Rain = 0
KHO1 201056Z 17007KT 25/13 A3014 RMK A01 T02520130  RH  046%=      5-min Rain = 0
KHO1 201057Z 17008KT 25/13 A3014 RMK A01 T02520130  RH  047%=      5-min Rain = 0
KHO1 201058Z 17009KT 25/13 A3014 RMK A01 T02520131  RH  047%=      5-min Rain = 0
KHO1 201059Z 16009KT 25/13 A3014 RMK A01 T02520132  RH  047%=      5-min Rain = 0
KHO1 201100Z 17007KT 25/13 A3014 RMK A01 T02520132  RH  047%=      5-min Rain = 0
KHO1 201101Z 17006KT 25/13 A3014 RMK A01 T02520131  RH  047%=      5-min Rain = 0
KHO1 201102Z 16008KT 25/13 A3014 RMK A01 T02520132  RH  047%=      5-min Rain = 0
KHO1 201103Z 16007KT 25/13 A3014 RMK A01 T02520132  RH  047%=      5-min Rain = 0
KHO1 201104Z 17006KT 25/13 A3014 RMK A01 T02510132  RH  047%=      5-min Rain = 0
KHO1 201105Z 16006KT 25/13 A3014 RMK A01 T02510132  RH  048%=      5-min Rain = 0
KHO1 201106Z 16007KT 25/13 A3014 RMK A01 T02510133  RH  048%=      5-min Rain = 0
KHO1 201107Z 16006KT 25/13 A3014 RMK A01 T02510133  RH  048%=      5-min Rain = 0
KHO1 201108Z 16006KT 25/13 A3014 RMK A01 T02510133  RH  048%=      5-min Rain = 0
KHO1 201109Z 15007KT 25/13 A3014 RMK A01 T02500133  RH  048%=      5-min Rain = 0
KHO1 201110Z 16007KT 25/13 A3014 RMK A01 T02500134  RH  048%=      5-min Rain = 0
KHO1 201111Z 16007KT 25/14 A3014 RMK A01 T02500135  RH  049%=      5-min Rain = 0
KHO1 201112Z 16009KT 25/14 A3014 RMK A01 T02510135  RH  049%=      5-min Rain = 0
KHO1 201113Z 16009KT 25/14 A3014 RMK A01 T02510136  RH  049%=      5-min Rain = 0
KHO1 201114Z 16008KT 25/14 A3014 RMK A01 T02510135  RH  049%=      5-min Rain = 0
KHO1 201115Z 16008KT 25/14 A3014 RMK A01 T02500135  RH  049%=      5-min Rain = 0
KHO1 201116Z 16010KT 25/14 A3014 RMK A01 T02500136  RH  049%=      5-min Rain = 0
KHO1 201117Z 16009KT 25/14 A3014 RMK A01 T02510136  RH  049%=      5-min Rain = 0
KHO1 201118Z 16009KT 25/14 A3014 RMK A01 T02500136  RH  049%=      5-min Rain = 0
KHO1 201119Z 16009KT 25/14 A3014 RMK A01 T02500136  RH  049%=      5-min Rain = 0
KHO1 201120Z 16009KT 25/14 A3014 RMK A01 T02500137  RH  049%=      5-min Rain = 0
KHO1 201121Z 16008KT 25/14 A3014 RMK A01 T02500136  RH  049%=      5-min Rain = 0
KHO1 201122Z 17009KT 25/14 A3014 RMK A01 T02500137  RH  049%=      5-min Rain = 0
KHO1 201123Z 16009KT 25/14 A3014 RMK A01 T02500136  RH  049%=      5-min Rain = 0
KHO1 201124Z 16010KT 25/14 A3014 RMK A01 T02500137  RH  050%=      5-min Rain = 0
KHO1 201125Z 16008KT 25/14 A3014 RMK A01 T02500137  RH  049%=      5-min Rain = 0
KHO1 201126Z 17008KT 25/14 A3014 RMK A01 T02490137  RH  050%=      5-min Rain = 0
KHO1 201127Z 16008KT 25/14 A3014 RMK A01 T02480137  RH  050%=      5-min Rain = 0
KHO1 201128Z 16007KT 25/14 A3014 RMK A01 T02480137  RH  050%=      5-min Rain = 0
KHO1 201129Z 17009KT 25/14 A3014 RMK A01 T02480137  RH  050%=      5-min Rain = 0
KHO1 201130Z 17010KT 25/14 A3014 RMK A01 T02480138  RH  050%=      5-min Rain = 0
KHO1 201131Z 16008KT 25/14 A3015 RMK A01 T02490137  RH  050%=      5-min Rain = 0
KHO1 201132Z 16010KT 25/14 A3015 RMK A01 T02480137  RH  050%=      5-min Rain = 0
KHO1 201133Z 17008KT 25/14 A3015 RMK A01 T02480137  RH  050%=      5-min Rain = 0
KHO1 201134Z 17009KT 25/14 A3015 RMK A01 T02480137  RH  050%=      5-min Rain = 0
KHO1 201135Z 17008KT 25/14 A3015 RMK A01 T02470137  RH  050%=      5-min Rain = 0
KHO1 201136Z 17009KT 25/14 A3015 RMK A01 T02470137  RH  050%=      5-min Rain = 0
KHO1 201137Z 17009KT 25/14 A3015 RMK A01 T02470138  RH  050%=      5-min Rain = 0
KHO1 201138Z 17010KT 25/14 A3015 RMK A01 T02470138  RH  050%=      5-min Rain = 0
KHO1 201139Z 17009KT 25/14 A3015 RMK A01 T02470138  RH  050%=      5-min Rain = 0
KHO1 201140Z 17009KT 25/14 A3015 RMK A01 T02470138  RH  051%=      5-min Rain = 0
KHO1 201141Z 17008KT 25/14 A3015 RMK A01 T02460137  RH  051%=      5-min Rain = 0
KHO1 201142Z 17008KT 25/14 A3015 RMK A01 T02460137  RH  051%=      5-min Rain = 0
KHO1 201143Z 17007KT 25/14 A3015 RMK A01 T02450137  RH  051%=      5-min Rain = 0
KHO1 201144Z 17007KT 25/14 A3015 RMK A01 T02450137  RH  051%=      5-min Rain = 0
KHO1 201145Z 16008KT 25/14 A3015 RMK A01 T02450138  RH  051%=      5-min Rain = 0
KHO1 201146Z 17008KT 25/14 A3015 RMK A01 T02450138  RH  051%=      5-min Rain = 0
KHO1 201147Z 17009KT 24/14 A3015 RMK A01 T02440138  RH  051%=      5-min Rain = 0
KHO1 201148Z 16009KT 24/14 A3015 RMK A01 T02440138  RH  051%=      5-min Rain = 0
KHO1 201149Z 17008KT 24/14 A3015 RMK A01 T02440138  RH  052%=      5-min Rain = 0
KHO1 201150Z 17008KT 24/14 A3015 RMK A01 T02440138  RH  052%=      5-min Rain = 0
KHO1 201151Z 17007KT 24/14 A3015 RMK A01 T02440138  RH  052%=      5-min Rain = 0
KHO1 201152Z 17008KT 24/14 A3015 RMK A01 T02430138  RH  052%=      5-min Rain = 0
KHO1 201153Z 16008KT 24/14 A3015 RMK A01 T02430138  RH  052%=      5-min Rain = 0
KHO1 201154Z 16008KT 24/14 A3015 RMK A01 T02430139  RH  052%=      5-min Rain = 0
KHO1 201155Z 16008KT 24/14 A3015 RMK A01 T02430138  RH  052%=      5-min Rain = 0
KHO1 201156Z 16007KT 24/14 A3015 RMK A01 T02430138  RH  052%=      5-min Rain = 0
KHO1 201157Z 17008KT 24/14 A3015 RMK A01 T02420138  RH  052%=      5-min Rain = 0
KHO1 201158Z 16007KT 24/14 A3015 RMK A01 T02420139  RH  052%=      5-min Rain = 0
KHO1 201159Z 16007KT 24/14 A3015 RMK A01 T02420139  RH  052%=      5-min Rain = 0
KHO1 201200Z 16008KT 24/14 A3015 RMK A01 T02420139  RH  053%=      5-min Rain = 0
KHO1 201201Z 16008KT 24/14 A3015 RMK A01 T02420139  RH  053%=      5-min Rain = 0
KHO1 201202Z 17007KT 24/14 A3015 RMK A01 T02420139  RH  053%=      5-min Rain = 0
KHO1 201203Z 17007KT 24/14 A3015 RMK A01 T02420139  RH  053%=      5-min Rain = 0
KHO1 201204Z 17007KT 24/14 A3015 RMK A01 T02420139  RH  053%=      5-min Rain = 0
KHO1 201205Z 17007KT 24/14 A3015 RMK A01 T02420139  RH  053%=      5-min Rain = 0
KHO1 201206Z 17007KT 24/14 A3015 RMK A01 T02410139  RH  053%=      5-min Rain = 0
KHO1 201207Z 17007KT 24/14 A3015 RMK A01 T02410140  RH  053%=      5-min Rain = 0
KHO1 201208Z 17008KT 24/14 A3015 RMK A01 T02410140  RH  053%=      5-min Rain = 0
KHO1 201209Z 17007KT 24/14 A3016 RMK A01 T02410140  RH  053%=      5-min Rain = 0
KHO1 201210Z 17008KT 24/14 A3016 RMK A01 T02410140  RH  053%=      5-min Rain = 0
KHO1 201211Z 17008KT 24/14 A3016 RMK A01 T02410140  RH  053%=      5-min Rain = 0
KHO1 201212Z 17007KT 24/14 A3016 RMK A01 T02410140  RH  053%=      5-min Rain = 0
KHO1 201213Z 17008KT 24/14 A3016 RMK A01 T02410140  RH  053%=      5-min Rain = 0
KHO1 201214Z 17006KT 24/14 A3016 RMK A01 T02400140  RH  053%=      5-min Rain = 0
KHO1 201215Z 17007KT 24/14 A3016 RMK A01 T02400140  RH  054%=      5-min Rain = 0
KHO1 201216Z 17007KT 24/14 A3016 RMK A01 T02400140  RH  054%=      5-min Rain = 0
KHO1 201217Z 17007KT 24/14 A3016 RMK A01 T02390140  RH  054%=      5-min Rain = 0
KHO1 201218Z 17006KT 24/14 A3016 RMK A01 T02390140  RH  054%=      5-min Rain = 0
KHO1 201219Z 18006KT 24/14 A3016 RMK A01 T02390140  RH  054%=      5-min Rain = 0
KHO1 201220Z 17007KT 24/14 A3016 RMK A01 T02390140  RH  054%=      5-min Rain = 0
KHO1 201221Z 17007KT 24/14 A3015 RMK A01 T02380140  RH  054%=      5-min Rain = 0
KHO1 201222Z 18007KT 24/14 A3015 RMK A01 T02390141  RH  054%=      5-min Rain = 0
KHO1 201223Z 18007KT 24/14 A3016 RMK A01 T02390141  RH  054%=      5-min Rain = 0
KHO1 201224Z 17008KT 24/14 A3016 RMK A01 T02390141  RH  054%=      5-min Rain = 0
KHO1 201225Z 18007KT 24/14 A3016 RMK A01 T02390141  RH  054%=      5-min Rain = 0
KHO1 201226Z 17008KT 24/14 A3016 RMK A01 T02390141  RH  054%=      5-min Rain = 0
KHO1 201227Z 18007KT 24/14 A3016 RMK A01 T02390141  RH  054%=      5-min Rain = 0
KHO1 201228Z 17007KT 24/14 A3016 RMK A01 T02390141  RH  054%=      5-min Rain = 0
KHO1 201229Z 18008KT 24/14 A3016 RMK A01 T02390142  RH  054%=      5-min Rain = 0
KHO1 201230Z 18006KT 24/14 A3016 RMK A01 T02390142  RH  054%=      5-min Rain = 0
KHO1 201231Z 18008KT 24/14 A3016 RMK A01 T02390142  RH  054%=      5-min Rain = 0
KHO1 201232Z 18007KT 24/14 A3016 RMK A01 T02400142  RH  054%=      5-min Rain = 0
KHO1 201233Z 18008KT 24/14 A3016 RMK A01 T02400142  RH  054%=      5-min Rain = 0
KHO1 201234Z 17007KT 24/14 A3016 RMK A01 T02400143  RH  054%=      5-min Rain = 0
KHO1 201235Z 17007KT 24/14 A3016 RMK A01 T02400143  RH  054%=      5-min Rain = 0
KHO1 201236Z 18007KT 24/14 A3016 RMK A01 T02400143  RH  054%=      5-min Rain = 0
KHO1 201237Z 18007KT 24/14 A3016 RMK A01 T02400143  RH  054%=      5-min Rain = 0
KHO1 201238Z 18007KT 24/14 A3016 RMK A01 T02410143  RH  054%=      5-min Rain = 0
KHO1 201239Z 18007KT 24/14 A3016 RMK A01 T02410143  RH  054%=      5-min Rain = 0
KHO1 201240Z 18005KT 24/14 A3016 RMK A01 T02410143  RH  054%=      5-min Rain = 0
KHO1 201241Z 18007KT 24/14 A3016 RMK A01 T02410143  RH  054%=      5-min Rain = 0
KHO1 201242Z 18006KT 24/14 A3016 RMK A01 T02410143  RH  054%=      5-min Rain = 0
KHO1 201243Z 18006KT 24/14 A3016 RMK A01 T02410143  RH  054%=      5-min Rain = 0
KHO1 201244Z 18005KT 24/14 A3016 RMK A01 T02410143  RH  054%=      5-min Rain = 0
KHO1 201245Z 18005KT 24/14 A3016 RMK A01 T02410144  RH  054%=      5-min Rain = 0
KHO1 201246Z 17006KT 24/14 A3017 RMK A01 T02410144  RH  054%=      5-min Rain = 0
KHO1 201247Z 17005KT 24/14 A3017 RMK A01 T02410144  RH  055%=      5-min Rain = 0
KHO1 201248Z 17007KT 24/14 A3017 RMK A01 T02410144  RH  055%=      5-min Rain = 0
KHO1 201249Z 17007KT 24/14 A3017 RMK A01 T02410144  RH  055%=      5-min Rain = 0
KHO1 201250Z 17008KT 24/15 A3017 RMK A01 T02410145  RH  055%=      5-min Rain = 0
KHO1 201251Z 17007KT 24/15 A3017 RMK A01 T02410145  RH  055%=      5-min Rain = 0
KHO1 201252Z 17007KT 24/15 A3017 RMK A01 T02420145  RH  055%=      5-min Rain = 0
KHO1 201253Z 18008KT 24/15 A3017 RMK A01 T02420145  RH  055%=      5-min Rain = 0
KHO1 201254Z 18007KT 24/15 A3017 RMK A01 T02420145  RH  055%=      5-min Rain = 0
KHO1 201255Z 17007KT 24/15 A3017 RMK A01 T02420145  RH  055%=      5-min Rain = 0
KHO1 201256Z 17007KT 24/15 A3017 RMK A01 T02420145  RH  055%=      5-min Rain = 0
KHO1 201257Z 17007KT 24/15 A3017 RMK A01 T02430146  RH  055%=      5-min Rain = 0
KHO1 201258Z 17006KT 24/15 A3017 RMK A01 T02430146  RH  054%=      5-min Rain = 0
KHO1 201259Z 17006KT 24/15 A3017 RMK A01 T02440146  RH  054%=      5-min Rain = 0
KHO1 201300Z 17006KT 24/15 A3017 RMK A01 T02440146  RH  054%=      5-min Rain = 0
KHO1 201301Z 17007KT 24/15 A3017 RMK A01 T02440146  RH  054%=      5-min Rain = 0
KHO1 201302Z 17007KT 25/15 A3017 RMK A01 T02450147  RH  054%=      5-min Rain = 0
KHO1 201303Z 17006KT 25/15 A3017 RMK A01 T02450147  RH  054%=      5-min Rain = 0
KHO1 201304Z 16007KT 25/15 A3017 RMK A01 T02450147  RH  054%=      5-min Rain = 0
KHO1 201305Z 17007KT 25/15 A3017 RMK A01 T02460148  RH  054%=      5-min Rain = 0
KHO1 201306Z 17008KT 25/15 A3017 RMK A01 T02460148  RH  054%=      5-min Rain = 0
KHO1 201307Z 17011KT 25/15 A3017 RMK A01 T02460148  RH  054%=      5-min Rain = 0
KHO1 201308Z 17009KT 25/15 A3017 RMK A01 T02460149  RH  055%=      5-min Rain = 0
KHO1 201309Z 17009KT 25/15 A3017 RMK A01 T02460149  RH  055%=      5-min Rain = 0
KHO1 201310Z 17009KT 25/15 A3017 RMK A01 T02460149  RH  055%=      5-min Rain = 0
KHO1 201311Z 17010KT 25/15 A3017 RMK A01 T02460149  RH  055%=      5-min Rain = 0
KHO1 201312Z 16010KT 25/15 A3017 RMK A01 T02460150  RH  055%=      5-min Rain = 0
KHO1 201313Z 17008KT 25/15 A3017 RMK A01 T02470150  RH  055%=      5-min Rain = 0
KHO1 201314Z 17010KT 25/15 A3017 RMK A01 T02470151  RH  055%=      5-min Rain = 0
KHO1 201315Z 17009KT 25/15 A3017 RMK A01 T02480152  RH  055%=      5-min Rain = 0
KHO1 201316Z 17009KT 25/15 A3017 RMK A01 T02480152  RH  055%=      5-min Rain = 0
KHO1 201317Z 17010KT 25/15 A3017 RMK A01 T02480153  RH  055%=      5-min Rain = 0
KHO1 201318Z 17009KT 25/15 A3017 RMK A01 T02470153  RH  056%=      5-min Rain = 0
KHO1 201319Z 18010KT 25/15 A3017 RMK A01 T02480154  RH  056%=      5-min Rain = 0
KHO1 201320Z 17010KT 25/15 A3018 RMK A01 T02480153  RH  056%=      5-min Rain = 0
KHO1 201321Z 16011KT 25/15 A3017 RMK A01 T02480154  RH  056%=      5-min Rain = 0
KHO1 201322Z 17011KT 25/15 A3018 RMK A01 T02470154  RH  056%=      5-min Rain = 0
KHO1 201323Z 17009KT 25/15 A3018 RMK A01 T02470154  RH  056%=      5-min Rain = 0
KHO1 201324Z 16011KT 25/16 A3018 RMK A01 T02480155  RH  056%=      5-min Rain = 0
KHO1 201325Z 17010KT 25/16 A3018 RMK A01 T02480155  RH  056%=      5-min Rain = 0
KHO1 201326Z 16010KT 25/16 A3018 RMK A01 T02490156  RH  056%=      5-min Rain = 0
KHO1 201327Z 17008KT 25/16 A3018 RMK A01 T02490156  RH  056%=      5-min Rain = 0
KHO1 201328Z 16010KT 25/16 A3018 RMK A01 T02500156  RH  056%=      5-min Rain = 0
KHO1 201329Z 17012KT 25/16 A3018 RMK A01 T02500157  RH  056%=      5-min Rain = 0
KHO1 201330Z 17011KT 25/16 A3018 RMK A01 T02490157  RH  057%=      5-min Rain = 0
KHO1 201331Z 18011KT 25/16 A3018 RMK A01 T02500158  RH  057%=      5-min Rain = 0
KHO1 201332Z 17009KT 25/16 A3018 RMK A01 T02500157  RH  057%=      5-min Rain = 0
KHO1 201333Z 17011KT 25/16 A3018 RMK A01 T02490158  RH  057%=      5-min Rain = 0
KHO1 201334Z 16013KT 25/16 A3018 RMK A01 T02490159  RH  057%=      5-min Rain = 0
KHO1 201335Z 17013KT 25/16 A3018 RMK A01 T02490159  RH  058%=      5-min Rain = 0
KHO1 201336Z 16013KT 25/16 A3018 RMK A01 T02490160  RH  058%=      5-min Rain = 0
KHO1 201337Z 17013KT 25/16 A3018 RMK A01 T02490159  RH  058%=      5-min Rain = 0
KHO1 201338Z 16010KT 25/16 A3018 RMK A01 T02490159  RH  057%=      5-min Rain = 0
KHO1 201339Z 17009KT 25/16 A3018 RMK A01 T02490160  RH  057%=      5-min Rain = 0
KHO1 201340Z 16010KT 25/16 A3018 RMK A01 T02500160  RH  057%=      5-min Rain = 0
KHO1 201341Z 17010KT 25/16 A3018 RMK A01 T02500160  RH  057%=      5-min Rain = 0
KHO1 201342Z 17011KT 25/16 A3018 RMK A01 T02500160  RH  057%=      5-min Rain = 0
KHO1 201343Z 17012KT 25/16 A3018 RMK A01 T02510160  RH  057%=      5-min Rain = 0
KHO1 201344Z 17010KT 25/16 A3018 RMK A01 T02510160  RH  057%=      5-min Rain = 0
KHO1 201345Z 17009KT 25/16 A3018 RMK A01 T02520161  RH  057%=      5-min Rain = 0
KHO1 201346Z 16011KT 25/16 A3018 RMK A01 T02530161  RH  057%=      5-min Rain = 0
KHO1 201347Z 17011KT 25/16 A3018 RMK A01 T02530161  RH  057%=      5-min Rain = 0
KHO1 201348Z 17010KT 25/16 A3018 RMK A01 T02530161  RH  057%=      5-min Rain = 0
KHO1 201349Z 17011KT 26/16 A3018 RMK A01 T02550162  RH  057%=      5-min Rain = 0
KHO1 201350Z 17010KT 26/16 A3018 RMK A01 T02560162  RH  056%=      5-min Rain = 0
KHO1 201351Z 18010KT 26/16 A3018 RMK A01 T02560162  RH  056%=      5-min Rain = 0
KHO1 201352Z 17012KT 26/16 A3018 RMK A01 T02560161  RH  056%=      5-min Rain = 0
KHO1 201353Z 17011KT 26/16 A3018 RMK A01 T02560162  RH  056%=      5-min Rain = 0
KHO1 201354Z 18010KT 26/16 A3018 RMK A01 T02570163  RH  056%=      5-min Rain = 0
KHO1 201355Z 17012KT 26/16 A3018 RMK A01 T02590163  RH  055%=      5-min Rain = 0
KHO1 201356Z 18012KT 26/16 A3018 RMK A01 T02590163  RH  055%=      5-min Rain = 0
KHO1 201357Z 17011KT 26/16 A3018 RMK A01 T02600163  RH  055%=      5-min Rain = 0
KHO1 201358Z 17011KT 26/16 A3018 RMK A01 T02630164  RH  054%=      5-min Rain = 0
KHO1 201359Z 18011KT 26/16 A3018 RMK A01 T02640163  RH  054%=      5-min Rain = 0
KHO1 201400Z 18014KT 26/16 A3018 RMK A01 T02640163  RH  054%=      5-min Rain = 0
KHO1 201401Z 17015KT 26/16 A3018 RMK A01 T02640163  RH  054%=      5-min Rain = 0
KHO1 201402Z 17016KT 26/16 A3018 RMK A01 T02620162  RH  054%=      5-min Rain = 0
KHO1 201403Z 18015KT 26/16 A3018 RMK A01 T02620161  RH  054%=      5-min Rain = 0
KHO1 201404Z 18014KT 26/16 A3018 RMK A01 T02630162  RH  054%=      5-min Rain = 0
KHO1 201405Z 18014KT 26/16 A3018 RMK A01 T02620162  RH  054%=      5-min Rain = 0
KHO1 201406Z 18012KT 26/16 A3018 RMK A01 T02620163  RH  054%=      5-min Rain = 0
KHO1 201407Z 18013KT 27/16 A3018 RMK A01 T02650163  RH  054%=      5-min Rain = 0
KHO1 201408Z 18015KT 26/16 A3018 RMK A01 T02640161  RH  053%=      5-min Rain = 0
KHO1 201409Z 17013G18KT 27/16 A3018 RMK A01 T02650161  RH  053%=      5-min Rain = 0
KHO1 201410Z 17016KT 26/16 A3018 RMK A01 T02640161  RH  053%=      5-min Rain = 0
KHO1 201411Z 18015KT 26/16 A3018 RMK A01 T02640162  RH  053%=      5-min Rain = 0
KHO1 201412Z 17014KT 27/16 A3019 RMK A01 T02650162  RH  053%=      5-min Rain = 0
KHO1 201413Z 18011KT 27/16 A3019 RMK A01 T02650161  RH  053%=      5-min Rain = 0
KHO1 201414Z 18016KT 26/16 A3019 RMK A01 T02630160  RH  053%=      5-min Rain = 0
KHO1 201415Z 18016KT 26/16 A3019 RMK A01 T02620160  RH  054%=      5-min Rain = 0
KHO1 201416Z 18015KT 26/16 A3019 RMK A01 T02600161  RH  054%=      5-min Rain = 0
KHO1 201417Z 17015KT 26/16 A3019 RMK A01 T02600161  RH  054%=      5-min Rain = 0
KHO1 201418Z 17013KT 26/16 A3019 RMK A01 T02620161  RH  054%=      5-min Rain = 0
KHO1 201419Z 17014KT 26/16 A3018 RMK A01 T02630161  RH  053%=      5-min Rain = 0
KHO1 201420Z 16015KT 26/16 A3018 RMK A01 T02640161  RH  053%=      5-min Rain = 0
KHO1 201421Z 17016KT 26/16 A3018 RMK A01 T02630161  RH  053%=      5-min Rain = 0
KHO1 201422Z 18013KT 26/16 A3018 RMK A01 T02640161  RH  053%=      5-min Rain = 0
KHO1 201423Z 18014KT 27/16 A3018 RMK A01 T02660160  RH  052%=      5-min Rain = 0
KHO1 201424Z 18015KT 27/16 A3018 RMK A01 T02660158  RH  052%=      5-min Rain = 0
KHO1 201425Z 17014KT 27/16 A3018 RMK A01 T02670159  RH  052%=      5-min Rain = 0
KHO1 201426Z 17015KT 27/16 A3018 RMK A01 T02670159  RH  051%=      5-min Rain = 0
KHO1 201427Z 18015KT 27/16 A3018 RMK A01 T02660159  RH  052%=      5-min Rain = 0
KHO1 201428Z 18013KT 27/16 A3018 RMK A01 T02670160  RH  052%=      5-min Rain = 0
KHO1 201429Z 18012KT 27/16 A3018 RMK A01 T02680161  RH  052%=      5-min Rain = 0
KHO1 201430Z 17012KT 27/16 A3018 RMK A01 T02710162  RH  051%=      5-min Rain = 0
KHO1 201431Z 17013KT 27/16 A3018 RMK A01 T02720161  RH  051%=      5-min Rain = 0
KHO1 201432Z 17013KT 27/16 A3018 RMK A01 T02700159  RH  051%=      5-min Rain = 0
KHO1 201433Z 17013KT 27/16 A3018 RMK A01 T02690159  RH  051%=      5-min Rain = 0
KHO1 201434Z 18011KT 27/16 A3018 RMK A01 T02690161  RH  051%=      5-min Rain = 0
KHO1 201435Z 18011KT 27/16 A3018 RMK A01 T02720161  RH  051%=      5-min Rain = 0
KHO1 201436Z 19012KT 27/16 A3018 RMK A01 T02740160  RH  050%=      5-min Rain = 0
KHO1 201437Z 18014KT 28/16 A3018 RMK A01 T02750158  RH  049%=      5-min Rain = 0
KHO1 201438Z 18013KT 28/16 A3018 RMK A01 T02750157  RH  049%=      5-min Rain = 0
KHO1 201439Z 18014KT 27/16 A3018 RMK A01 T02740157  RH  049%=      5-min Rain = 0
KHO1 201440Z 18011KT 28/16 A3018 RMK A01 T02750159  RH  049%=      5-min Rain = 0
KHO1 201441Z 17014KT 28/16 A3018 RMK A01 T02780158  RH  048%=      5-min Rain = 0
KHO1 201442Z 18011G16KT 28/16 A3018 RMK A01 T02780158  RH  048%=      5-min Rain = 0
KHO1 201443Z 17011KT 28/16 A3018 RMK A01 T02780158  RH  048%=      5-min Rain = 0
KHO1 201444Z 17012KT 28/16 A3018 RMK A01 T02780159  RH  048%=      5-min Rain = 0
KHO1 201445Z 18012KT 28/16 A3018 RMK A01 T02770158  RH  048%=      5-min Rain = 0
KHO1 201446Z 19011KT 28/16 A3018 RMK A01 T02770158  RH  048%=      5-min Rain = 0
KHO1 201447Z 18011KT 28/16 A3018 RMK A01 T02780159  RH  048%=      5-min Rain = 0
KHO1 201448Z 17012KT 28/16 A3018 RMK A01 T02770157  RH  048%=      5-min Rain = 0
KHO1 201449Z 17011KT 28/16 A3018 RMK A01 T02770158  RH  048%=      5-min Rain = 0
KHO1 201450Z 17012KT 28/16 A3018 RMK A01 T02760157  RH  048%=      5-min Rain = 0
KHO1 201451Z 18012KT 28/16 A3018 RMK A01 T02750157  RH  048%=      5-min Rain = 0
KHO1 201452Z 19012KT 27/16 A3018 RMK A01 T02730157  RH  049%=      5-min Rain = 0
KHO1 201453Z 17011KT 27/16 A3018 RMK A01 T02720157  RH  049%=      5-min Rain = 0
KHO1 201454Z 17012KT 27/16 A3018 RMK A01 T02730157  RH  049%=      5-min Rain = 0
KHO1 201455Z 17010KT 27/16 A3018 RMK A01 T02730157  RH  049%=      5-min Rain = 0
KHO1 201456Z 17011KT 27/16 A3018 RMK A01 T02730157  RH  049%=      5-min Rain = 0
KHO1 201457Z 18010KT 27/16 A3018 RMK A01 T02730158  RH  049%=      5-min Rain = 0
KHO1 201458Z 18011KT 28/16 A3018 RMK A01 T02750159  RH  049%=      5-min Rain = 0
KHO1 201459Z 17011KT 28/16 A3018 RMK A01 T02780159  RH  048%=      5-min Rain = 0
KHO1 201500Z 17011KT 28/16 A3018 RMK A01 T02790159  RH  048%=      5-min Rain = 0
KHO1 201501Z 17011KT 28/16 A3018 RMK A01 T02800159  RH  048%=      5-min Rain = 0
KHO1 201502Z 17009KT 28/16 A3018 RMK A01 T02790159  RH  048%=      5-min Rain = 0
KHO1 201503Z 18009KT 28/16 A3018 RMK A01 T02810160  RH  048%=      5-min Rain = 0
KHO1 201504Z 18012KT 28/16 A3018 RMK A01 T02830158  RH  046%=      5-min Rain = 0
KHO1 201505Z 19010KT 28/16 A3018 RMK A01 T02830157  RH  046%=      5-min Rain = 0
KHO1 201506Z 19010KT 28/16 A3018 RMK A01 T02840156  RH  046%=      5-min Rain = 0
KHO1 201507Z 18011KT 28/16 A3018 RMK A01 T02830156  RH  046%=      5-min Rain = 0
KHO1 201508Z 19010KT 28/16 A3018 RMK A01 T02830156  RH  046%=      5-min Rain = 0
KHO1 201509Z 19013KT 29/16 A3018 RMK A01 T02860155  RH  045%=      5-min Rain = 0
KHO1 201510Z 18012KT 29/15 A3018 RMK A01 T02870153  RH  044%=      5-min Rain = 0
KHO1 201511Z 18012KT 29/15 A3018 RMK A01 T02880152  RH  044%=      5-min Rain = 0
KHO1 201512Z 17013KT 29/15 A3018 RMK A01 T02880152  RH  044%=      5-min Rain = 0
KHO1 201513Z 17010KT 29/15 A3018 RMK A01 T02880153  RH  044%=      5-min Rain = 0
KHO1 201514Z 18013KT 29/15 A3018 RMK A01 T02890153  RH  044%=      5-min Rain = 0
KHO1 201515Z 18014KT 29/15 A3018 RMK A01 T02880153  RH  044%=      5-min Rain = 0
KHO1 201516Z 18012KT 29/15 A3018 RMK A01 T02860152  RH  044%=      5-min Rain = 0
KHO1 201517Z 19011KT 29/16 A3018 RMK A01 T02880155  RH  044%=      5-min Rain = 0
KHO1 201518Z 19009KT 29/15 A3018 RMK A01 T02880154  RH  044%=      5-min Rain = 0
KHO1 201519Z 19012KT 29/15 A3018 RMK A01 T02880154  RH  044%=      5-min Rain = 0
KHO1 201520Z 18010KT 29/16 A3018 RMK A01 T02890155  RH  044%=      5-min Rain = 0
KHO1 201521Z 17010KT 29/16 A3018 RMK A01 T02890155  RH  044%=      5-min Rain = 0
KHO1 201522Z 18010KT 29/16 A3018 RMK A01 T02930157  RH  044%=      5-min Rain = 0
KHO1 201523Z 18010KT 29/16 A3018 RMK A01 T02940155  RH  043%=      5-min Rain = 0
KHO1 201524Z 19012KT 30/15 A3018 RMK A01 T02950151  RH  042%=      5-min Rain = 0
KHO1 201525Z 17012KT 30/15 A3018 RMK A01 T02950150  RH  041%=      5-min Rain = 0
KHO1 201526Z 17012KT 29/15 A3018 RMK A01 T02930149  RH  041%=      5-min Rain = 0
KHO1 201527Z 18013KT 29/15 A3018 RMK A01 T02930151  RH  042%=      5-min Rain = 0
KHO1 201528Z 17012KT 29/15 A3018 RMK A01 T02920151  RH  042%=      5-min Rain = 0
KHO1 201529Z 17011KT 29/15 A3018 RMK A01 T02930152  RH  042%=      5-min Rain = 0
KHO1 201530Z 17012KT 29/15 A3018 RMK A01 T02930153  RH  042%=      5-min Rain = 0
KHO1 201531Z 18012KT 29/15 A3018 RMK A01 T02930152  RH  042%=      5-min Rain = 0
KHO1 201532Z 18011KT 29/15 A3018 RMK A01 T02940154  RH  043%=      5-min Rain = 0
KHO1 201533Z 18008KT 29/15 A3018 RMK A01 T02920152  RH  043%=      5-min Rain = 0
KHO1 201534Z 19009KT 29/15 A3018 RMK A01 T02930154  RH  043%=      5-min Rain = 0
KHO1 201535Z 17012KT 30/15 A3018 RMK A01 T02970153  RH  042%=      5-min Rain = 0
KHO1 201536Z 17008KT 29/15 A3018 RMK A01 T02940152  RH  042%=      5-min Rain = 0
KHO1 201537Z 17010KT 29/15 A3018 RMK A01 T02930153  RH  043%=      5-min Rain = 0
KHO1 201538Z 17009KT 30/16 A3018 RMK A01 T02960155  RH  043%=      5-min Rain = 0
KHO1 201539Z 18013KT 30/15 A3018 RMK A01 T02970151  RH  041%=      5-min Rain = 0
KHO1 201540Z 17010KT 30/15 A3018 RMK A01 T02950150  RH  041%=      5-min Rain = 0
KHO1 201541Z 18009KT 29/15 A3018 RMK A01 T02940151  RH  042%=      5-min Rain = 0
KHO1 201542Z 18012KT 29/15 A3018 RMK A01 T02940152  RH  042%=      5-min Rain = 0
KHO1 201543Z 17010KT 30/15 A3018 RMK A01 T02970152  RH  041%=      5-min Rain = 0
KHO1 201544Z 17009KT 30/15 A3018 RMK A01 T02970153  RH  042%=      5-min Rain = 0
KHO1 201545Z 17012KT 30/15 A3018 RMK A01 T02960149  RH  041%=      5-min Rain = 0
KHO1 201546Z 16011KT 30/15 A3018 RMK A01 T02960146  RH  040%=      5-min Rain = 0
KHO1 201547Z 17013KT 30/15 A3018 RMK A01 T02970147  RH  040%=      5-min Rain = 0
KHO1 201548Z 17012KT 30/15 A3018 RMK A01 T02950146  RH  040%=      5-min Rain = 0
KHO1 201549Z 16011KT 30/15 A3018 RMK A01 T02980146  RH  040%=      5-min Rain = 0
KHO1 201550Z 17012KT 30/15 A3018 RMK A01 T03000147  RH  040%=      5-min Rain = 0
KHO1 201551Z 17013KT 30/14 A3018 RMK A01 T02990144  RH  039%=      5-min Rain = 0
KHO1 201552Z 17010KT 30/15 A3018 RMK A01 T02980146  RH  040%=      5-min Rain = 0
KHO1 201553Z 17012KT 30/15 A3018 RMK A01 T02990149  RH  040%=      5-min Rain = 0
KHO1 201554Z 17009KT 30/15 A3018 RMK A01 T02990147  RH  039%=      5-min Rain = 0
KHO1 201555Z 17011KT 30/15 A3018 RMK A01 T03000148  RH  040%=      5-min Rain = 0
KHO1 201556Z 19010KT 30/15 A3018 RMK A01 T02970148  RH  040%=      5-min Rain = 0
KHO1 201557Z 19008KT 30/15 A3018 RMK A01 T02980149  RH  041%=      5-min Rain = 0
KHO1 201558Z 20009KT 30/15 A3018 RMK A01 T03010149  RH  039%=      5-min Rain = 0
KHO1 201559Z 17012KT 30/15 A3018 RMK A01 T03040147  RH  038%=      5-min Rain = 0
KHO1 201600Z 16010KT 30/15 A3018 RMK A01 T03030147  RH  039%=      5-min Rain = 0
KHO1 201601Z 16009KT 30/15 A3017 RMK A01 T03030147  RH  039%=      5-min Rain = 0
KHO1 201602Z 15009KT 30/15 A3017 RMK A01 T03040151  RH  039%=      5-min Rain = 0
KHO1 201603Z 17010KT 31/15 A3017 RMK A01 T03080151  RH  039%=      5-min Rain = 0
KHO1 201604Z 18012KT 31/14 A3017 RMK A01 T03090142  RH  036%=      5-min Rain = 0
KHO1 201605Z 18013KT 31/14 A3017 RMK A01 T03050140  RH  036%=      5-min Rain = 0
KHO1 201606Z 17013KT 30/14 A3017 RMK A01 T03030143  RH  038%=      5-min Rain = 0
KHO1 201607Z 17011KT 30/14 A3018 RMK A01 T03010143  RH  038%=      5-min Rain = 0
KHO1 201608Z 17010G15KT 30/15 A3017 RMK A01 T03000145  RH  039%=      5-min Rain = 0
KHO1 201609Z 18011KT 30/15 A3017 RMK A01 T03030146  RH  038%=      5-min Rain = 0
KHO1 201610Z 18011KT 31/15 A3018 RMK A01 T03050145  RH  038%=      5-min Rain = 0
KHO1 201611Z 16008KT 30/15 A3017 RMK A01 T03030147  RH  039%=      5-min Rain = 0
KHO1 201612Z 16009KT 31/15 A3017 RMK A01 T03050148  RH  038%=      5-min Rain = 0
KHO1 201613Z 16010KT 31/15 A3017 RMK A01 T03080148  RH  038%=      5-min Rain = 0
KHO1 201614Z 15011KT 31/14 A3017 RMK A01 T03090142  RH  036%=      5-min Rain = 0
KHO1 201615Z 15011KT 31/14 A3017 RMK A01 T03100138  RH  035%=      5-min Rain = 0
KHO1 201616Z 16011KT 31/14 A3017 RMK A01 T03080138  RH  036%=      5-min Rain = 0
KHO1 201617Z 15012KT 31/13 A3017 RMK A01 T03060134  RH  035%=      5-min Rain = 0
KHO1 201618Z 15012KT 30/13 A3017 RMK A01 T03040130  RH  035%=      5-min Rain = 0
KHO1 201619Z 15013KT 30/13 A3017 RMK A01 T03030132  RH  035%=      5-min Rain = 0
KHO1 201620Z 15010KT 30/13 A3017 RMK A01 T03010132  RH  036%=      5-min Rain = 0
KHO1 201621Z 18009KT 30/14 A3017 RMK A01 T03010138  RH  037%=      5-min Rain = 0
KHO1 201622Z 17011KT 30/13 A3017 RMK A01 T03010132  RH  036%=      5-min Rain = 0
KHO1 201623Z 17012KT 30/12 A3017 RMK A01 T03000120  RH  033%=      5-min Rain = 0
KHO1 201624Z 16010KT 30/13 A3017 RMK A01 T02990127  RH  035%=      5-min Rain = 0
KHO1 201625Z 16008KT 30/13 A3017 RMK A01 T03000133  RH  036%=      5-min Rain = 0
KHO1 201626Z 16008KT 30/14 A3017 RMK A01 T03030136  RH  036%=      5-min Rain = 0
KHO1 201627Z 17010KT 31/14 A3017 RMK A01 T03060137  RH  036%=      5-min Rain = 0
KHO1 201628Z 18012KT 31/13 A3017 RMK A01 T03080134  RH  035%=      5-min Rain = 0
KHO1 201629Z 18010KT 31/13 A3017 RMK A01 T03070133  RH  035%=      5-min Rain = 0
KHO1 201630Z 17009KT 31/13 A3017 RMK A01 T03060130  RH  034%=      5-min Rain = 0
KHO1 201631Z 16010KT 31/13 A3017 RMK A01 T03080126  RH  033%=      5-min Rain = 0
KHO1 201632Z 16010KT 31/13 A3017 RMK A01 T03080128  RH  033%=      5-min Rain = 0
KHO1 201633Z 17011KT 31/12 A3017 RMK A01 T03100123  RH  032%=      5-min Rain = 0
KHO1 201634Z 16013KT 31/13 A3017 RMK A01 T03120125  RH  032%=      5-min Rain = 0
KHO1 201635Z 15013KT 31/12 A3017 RMK A01 T03120124  RH  032%=      5-min Rain = 0
KHO1 201636Z 16013KT 31/12 A3017 RMK A01 T03120124  RH  032%=      5-min Rain = 0
KHO1 201637Z 15013KT 31/13 A3017 RMK A01 T03090125  RH  032%=      5-min Rain = 0
KHO1 201638Z 15014KT 31/13 A3017 RMK A01 T03080126  RH  033%=      5-min Rain = 0
KHO1 201639Z 15013KT 31/13 A3017 RMK A01 T03070129  RH  034%=      5-min Rain = 0
KHO1 201640Z 15012KT 31/13 A3017 RMK A01 T03070130  RH  034%=      5-min Rain = 0
KHO1 201641Z 17012G18KT 31/13 A3017 RMK A01 T03080127  RH  033%=      5-min Rain = 0
KHO1 201642Z 17014KT 31/13 A3017 RMK A01 T03120129  RH  033%=      5-min Rain = 0
KHO1 201643Z 18014KT 31/12 A3017 RMK A01 T03110122  RH  031%=      5-min Rain = 0
KHO1 201644Z 18012KT 31/13 A3017 RMK A01 T03110125  RH  032%=      5-min Rain = 0
KHO1 201645Z 17011KT 31/12 A3017 RMK A01 T03130123  RH  031%=      5-min Rain = 0
KHO1 201646Z 17014KT 31/12 A3017 RMK A01 T03130124  RH  031%=      5-min Rain = 0
KHO1 201647Z 16014KT 31/13 A3017 RMK A01 T03130127  RH  032%=      5-min Rain = 0
KHO1 201648Z 16014KT 31/13 A3017 RMK A01 T03140126  RH  032%=      5-min Rain = 0
KHO1 201649Z 16012KT 32/12 A3017 RMK A01 T03160122  RH  031%=      5-min Rain = 0
KHO1 201650Z 16014KT 32/12 A3017 RMK A01 T03180124  RH  031%=      5-min Rain = 0
KHO1 201651Z 16014KT 32/13 A3017 RMK A01 T03160125  RH  031%=      5-min Rain = 0
KHO1 201652Z 17013G18KT 32/13 A3017 RMK A01 T03170126  RH  031%=      5-min Rain = 0
KHO1 201653Z 16013KT 32/12 A3017 RMK A01 T03220124  RH  030%=      5-min Rain = 0
KHO1 201654Z 16015KT 32/12 A3017 RMK A01 T03200121  RH  030%=      5-min Rain = 0
KHO1 201655Z 16013KT 32/12 A3017 RMK A01 T03210123  RH  030%=      5-min Rain = 0
KHO1 201656Z 14014KT 32/13 A3017 RMK A01 T03210126  RH  030%=      5-min Rain = 0
KHO1 201657Z 15016KT 32/13 A3017 RMK A01 T03230127  RH  030%=      5-min Rain = 0
KHO1 201658Z 16009KT 32/13 A3017 RMK A01 T03210127  RH  031%=      5-min Rain = 0
KHO1 201659Z 16010KT 32/13 A3017 RMK A01 T03210128  RH  031%=      5-min Rain = 0
KHO1 201700Z 16012KT 32/13 A3017 RMK A01 T03210126  RH  030%=      5-min Rain = 0
KHO1 201701Z 15016KT 33/13 A3017 RMK A01 T03250127  RH  030%=      5-min Rain = 0
KHO1 201702Z 15014KT 33/13 A3017 RMK A01 T03260126  RH  030%=      5-min Rain = 0
KHO1 201703Z 16015KT 32/12 A3017 RMK A01 T03230123  RH  030%=      5-min Rain = 0
KHO1 201704Z 14011KT 32/12 A3017 RMK A01 T03210124  RH  030%=      5-min Rain = 0
KHO1 201705Z 15012KT 33/13 A3017 RMK A01 T03250126  RH  030%=      5-min Rain = 0
KHO1 201706Z 14010KT 32/12 A3017 RMK A01 T03240124  RH  030%=      5-min Rain = 0
KHO1 201707Z 15010KT 33/12 A3017 RMK A01 T03260124  RH  029%=      5-min Rain = 0
KHO1 201708Z 18011G16KT 33/12 A3017 RMK A01 T03280119  RH  028%=      5-min Rain = 0
KHO1 201709Z 17014KT 33/12 A3017 RMK A01 T03270117  RH  028%=      5-min Rain = 0
KHO1 201710Z 17013KT 32/12 A3017 RMK A01 T03220118  RH  029%=      5-min Rain = 0
KHO1 201711Z 18008KT 32/12 A3017 RMK A01 T03200120  RH  029%=      5-min Rain = 0
KHO1 201712Z 16010KT 32/12 A3017 RMK A01 T03200121  RH  030%=      5-min Rain = 0
KHO1 201713Z 15015KT 33/12 A3017 RMK A01 T03260124  RH  029%=      5-min Rain = 0
KHO1 201714Z 17015KT 33/12 A3017 RMK A01 T03280124  RH  029%=      5-min Rain = 0
KHO1 201715Z 17010KT 33/12 A3017 RMK A01 T03280123  RH  029%=      5-min Rain = 0
KHO1 201716Z 15010KT 33/12 A3017 RMK A01 T03320122  RH  028%=      5-min Rain = 0
KHO1 201717Z 16012KT 34/12 A3017 RMK A01 T03350116  RH  026%=      5-min Rain = 0
KHO1 201718Z 15010G15KT 33/12 A3017 RMK A01 T03340116  RH  026%=      5-min Rain = 0
KHO1 201719Z 15014KT 33/11 A3017 RMK A01 T03320113  RH  026%=      5-min Rain = 0
KHO1 201720Z 14011KT 33/11 A3017 RMK A01 T03270113  RH  027%=      5-min Rain = 0
KHO1 201721Z 15010KT 33/11 A3017 RMK A01 T03250114  RH  027%=      5-min Rain = 0
KHO1 201722Z 18011KT 32/12 A3017 RMK A01 T03240117  RH  028%=      5-min Rain = 0
KHO1 201723Z 18010KT 32/12 A3017 RMK A01 T03230119  RH  029%=      5-min Rain = 0
KHO1 201724Z 18014KT 32/12 A3017 RMK A01 T03240121  RH  029%=      5-min Rain = 0
KHO1 201725Z 18011KT 32/12 A3017 RMK A01 T03230120  RH  029%=      5-min Rain = 0
KHO1 201726Z 16011KT 32/12 A3017 RMK A01 T03230118  RH  029%=      5-min Rain = 0
KHO1 201727Z 18011KT 33/12 A3017 RMK A01 T03270120  RH  028%=      5-min Rain = 0
KHO1 201728Z 19013KT 33/12 A3017 RMK A01 T03290118  RH  028%=      5-min Rain = 0
KHO1 201729Z 18011KT 33/12 A3017 RMK A01 T03260115  RH  028%=      5-min Rain = 0
KHO1 201730Z 18012KT 33/12 A3017 RMK A01 T03250116  RH  028%=      5-min Rain = 0
KHO1 201731Z 16013KT 33/12 A3017 RMK A01 T03260118  RH  028%=      5-min Rain = 0
KHO1 201732Z 17012KT 33/12 A3017 RMK A01 T03260118  RH  028%=      5-min Rain = 0
KHO1 201733Z 17009KT 32/12 A3017 RMK A01 T03240117  RH  028%=      5-min Rain = 0
KHO1 201734Z 16010KT 32/12 A3017 RMK A01 T03240116  RH  028%=      5-min Rain = 0
KHO1 201735Z 14013KT 33/11 A3017 RMK A01 T03280109  RH  026%=      5-min Rain = 0
KHO1 201736Z 15012KT 33/11 A3017 RMK A01 T03320110  RH  026%=      5-min Rain = 0
KHO1 201737Z 14012KT 33/11 A3017 RMK A01 T03320108  RH  025%=      5-min Rain = 0
KHO1 201738Z 15014KT 34/11 A3017 RMK A01 T03360109  RH  025%=      5-min Rain = 0
KHO1 201739Z 16013KT 34/11 A3017 RMK A01 T03350109  RH  025%=      5-min Rain = 0
KHO1 201740Z 16010KT 33/11 A3017 RMK A01 T03330108  RH  025%=      5-min Rain = 0
KHO1 201741Z 19008KT 33/11 A3017 RMK A01 T03300107  RH  026%=      5-min Rain = 0
KHO1 201742Z 19007KT 33/11 A3017 RMK A01 T03300107  RH  026%=      5-min Rain = 0
KHO1 201743Z 18012KT 33/11 A3017 RMK A01 T03340108  RH  025%=      5-min Rain = 0
KHO1 201744Z 18011KT 33/11 A3017 RMK A01 T03290105  RH  025%=      5-min Rain = 0
KHO1 201745Z 19010KT 33/11 A3017 RMK A01 T03270105  RH  026%=      5-min Rain = 0
KHO1 201746Z 16012KT 33/11 A3017 RMK A01 T03300107  RH  026%=      5-min Rain = 0
KHO1 201747Z 15010KT 33/11 A3017 RMK A01 T03300109  RH  026%=      5-min Rain = 0
KHO1 201748Z 15008KT 33/11 A3017 RMK A01 T03290110  RH  026%=      5-min Rain = 0
KHO1 201749Z 15011KT 33/11 A3017 RMK A01 T03270112  RH  027%=      5-min Rain = 0
KHO1 201750Z 15011KT 33/11 A3017 RMK A01 T03260113  RH  027%=      5-min Rain = 0
KHO1 201751Z 15008KT 33/12 A3017 RMK A01 T03270115  RH  027%=      5-min Rain = 0
KHO1 201752Z 14009KT 33/11 A3017 RMK A01 T03290113  RH  027%=      5-min Rain = 0
KHO1 201753Z 17014KT 33/11 A3017 RMK A01 T03300106  RH  025%=      5-min Rain = 0
KHO1 201754Z 17012KT 33/11 A3017 RMK A01 T03280105  RH  025%=      5-min Rain = 0
KHO1 201755Z 14013KT 33/11 A3017 RMK A01 T03290105  RH  025%=      5-min Rain = 0
KHO1 201756Z 14011KT 33/11 A3017 RMK A01 T03280107  RH  026%=      5-min Rain = 0
KHO1 201757Z 15012KT 33/11 A3017 RMK A01 T03270107  RH  026%=      5-min Rain = 0
KHO1 201758Z 15013KT 33/11 A3017 RMK A01 T03270110  RH  027%=      5-min Rain = 0
KHO1 201759Z 16009KT 33/11 A3017 RMK A01 T03270110  RH  027%=      5-min Rain = 0
KHO1 201800Z 14007KT 33/11 A3017 RMK A01 T03260111  RH  027%=      5-min Rain = 0
KHO1 201801Z 15008G14KT 33/11 A3017 RMK A01 T03260110  RH  027%=      5-min Rain = 0
KHO1 201802Z 14008KT 33/11 A3016 RMK A01 T03250111  RH  027%=      5-min Rain = 0
KHO1 201803Z 16012KT 33/11 A3016 RMK A01 T03290108  RH  026%=      5-min Rain = 0
KHO1 201804Z 17013KT 33/10 A3016 RMK A01 T03300104  RH  025%=      5-min Rain = 0
KHO1 201805Z 16012KT 33/10 A3016 RMK A01 T03320101  RH  024%=      5-min Rain = 0
KHO1 201806Z 15011KT 34/10 A3016 RMK A01 T03370103  RH  024%=      5-min Rain = 0
KHO1 201807Z 15009KT 34/10 A3016 RMK A01 T03380101  RH  024%=      5-min Rain = 0
KHO1 201808Z 15009KT 34/10 A3016 RMK A01 T03370104  RH  024%=      5-min Rain = 0
KHO1 201809Z 15010KT 34/11 A3016 RMK A01 T03380105  RH  024%=      5-min Rain = 0
KHO1 201810Z 13007KT 33/11 A3016 RMK A01 T03340108  RH  025%=      5-min Rain = 0
KHO1 201811Z 14009KT 34/11 A3016 RMK A01 T03360108  RH  025%=      5-min Rain = 0
KHO1 201812Z 16009G15KT 33/11 A3016 RMK A01 T03340108  RH  025%=      5-min Rain = 0
KHO1 201813Z 17014KT 34/11 A3016 RMK A01 T03380108  RH  024%=      5-min Rain = 0
KHO1 201814Z 16012KT 34/10 A3016 RMK A01 T03370104  RH  024%=      5-min Rain = 0
KHO1 201815Z 15012KT 34/10 A3016 RMK A01 T03400104  RH  024%=      5-min Rain = 0
KHO1 201816Z 16008KT 34/10 A3016 RMK A01 T03390102  RH  023%=      5-min Rain = 0
KHO1 201817Z 16009KT 34/10 A3016 RMK A01 T03400100  RH  023%=      5-min Rain = 0
KHO1 201818Z 16012KT 34/10 A3016 RMK A01 T03410095  RH  022%=      5-min Rain = 0
KHO1 201819Z 17009KT 34/09 A3016 RMK A01 T03400093  RH  022%=      5-min Rain = 0
KHO1 201820Z 17010KT 34/10 A3016 RMK A01 T03380098  RH  023%=      5-min Rain = 0
KHO1 201821Z 19007KT 34/10 A3016 RMK A01 T03360102  RH  024%=      5-min Rain = 0
KHO1 201822Z 14006KT 34/10 A3016 RMK A01 T03360102  RH  024%=      5-min Rain = 0
KHO1 201823Z 14007KT 34/10 A3016 RMK A01 T03370102  RH  024%=      5-min Rain = 0
KHO1 201824Z 14011KT 34/10 A3016 RMK A01 T03390103  RH  024%=      5-min Rain = 0
KHO1 201825Z 17011KT 34/10 A3016 RMK A01 T03410100  RH  023%=      5-min Rain = 0
KHO1 201826Z 17012KT 34/10 A3016 RMK A01 T03390097  RH  023%=      5-min Rain = 0
KHO1 201827Z 18010KT 34/09 A3016 RMK A01 T03430094  RH  022%=      5-min Rain = 0
KHO1 201828Z 18012KT 34/09 A3016 RMK A01 T03440093  RH  022%=      5-min Rain = 0
KHO1 201829Z 18009KT 34/09 A3016 RMK A01 T03430093  RH  022%=      5-min Rain = 0
KHO1 201830Z 18010KT 34/10 A3016 RMK A01 T03420096  RH  022%=      5-min Rain = 0
KHO1 201831Z 18009KT 34/10 A3016 RMK A01 T03380095  RH  023%=      5-min Rain = 0
KHO1 201832Z 19007G12KT 34/10 A3016 RMK A01 T03390097  RH  023%=      5-min Rain = 0
KHO1 201833Z 19009KT 34/10 A3015 RMK A01 T03400097  RH  023%=      5-min Rain = 0
KHO1 201834Z 17006G11KT 34/10 A3016 RMK A01 T03370096  RH  023%=      5-min Rain = 0
KHO1 201835Z 16013KT 34/09 A3015 RMK A01 T03380088  RH  022%=      5-min Rain = 0
KHO1 201836Z 16012KT 34/09 A3015 RMK A01 T03360090  RH  022%=      5-min Rain = 0
KHO1 201837Z 17009KT 34/09 A3015 RMK A01 T03370093  RH  022%=      5-min Rain = 0
KHO1 201838Z 18007KT 34/09 A3015 RMK A01 T03380093  RH  022%=      5-min Rain = 0
KHO1 201839Z 17006KT 34/09 A3015 RMK A01 T03380093  RH  022%=      5-min Rain = 0
KHO1 201840Z 15008KT 34/10 A3015 RMK A01 T03380095  RH  023%=      5-min Rain = 0
KHO1 201841Z 15009KT 34/10 A3015 RMK A01 T03390099  RH  023%=      5-min Rain = 0
KHO1 201842Z 15011KT 34/09 A3015 RMK A01 T03400090  RH  022%=      5-min Rain = 0
KHO1 201843Z 14011KT 34/09 A3015 RMK A01 T03380086  RH  021%=      5-min Rain = 0
KHO1 201844Z 18010KT 34/09 A3015 RMK A01 T03380087  RH  021%=      5-min Rain = 0
KHO1 201845Z 18009KT 34/09 A3015 RMK A01 T03360087  RH  022%=      5-min Rain = 0
KHO1 201846Z 16008G13KT 34/09 A3015 RMK A01 T03360087  RH  022%=      5-min Rain = 0
KHO1 201847Z 13010KT 34/09 A3015 RMK A01 T03370092  RH  022%=      5-min Rain = 0
KHO1 201848Z 14008KT 34/09 A3015 RMK A01 T03370090  RH  022%=      5-min Rain = 0
KHO1 201849Z 14006KT 34/10 A3015 RMK A01 T03360098  RH  023%=      5-min Rain = 0
KHO1 201850Z 16005KT 34/10 A3015 RMK A01 T03350099  RH  024%=      5-min Rain = 0
KHO1 201851Z 18004KT 33/10 A3015 RMK A01 T03330099  RH  024%=      5-min Rain = 0
KHO1 201852Z 15005G10KT 33/10 A3015 RMK A01 T03330099  RH  024%=      5-min Rain = 0
KHO1 201853Z 15010KT 34/10 A3015 RMK A01 T03350100  RH  024%=      5-min Rain = 0
KHO1 201854Z 13010G15KT 34/10 A3015 RMK A01 T03390101  RH  023%=      5-min Rain = 0
KHO1 201855Z 15011KT 34/09 A3015 RMK A01 T03380090  RH  022%=      5-min Rain = 0
KHO1 201856Z 14008KT 34/09 A3015 RMK A01 T03360088  RH  022%=      5-min Rain = 0
KHO1 201857Z 15008KT 34/10 A3015 RMK A01 T03360095  RH  023%=      5-min Rain = 0
KHO1 201858Z 17007KT 34/10 A3015 RMK A01 T03380098  RH  023%=      5-min Rain = 0
KHO1 201859Z 18008KT 34/10 A3015 RMK A01 T03380098  RH  023%=      5-min Rain = 0
KHO1 201900Z 17006KT 33/10 A3015 RMK A01 T03340096  RH  023%=      5-min Rain = 0
KHO1 201901Z 16008KT 34/09 A3015 RMK A01 T03350093  RH  023%=      5-min Rain = 0
KHO1 201902Z 17011KT 34/09 A3015 RMK A01 T03360091  RH  022%=      5-min Rain = 0
KHO1 201903Z 18009KT 33/09 A3015 RMK A01 T03340091  RH  022%=      5-min Rain = 0
KHO1 201904Z 13008KT 34/09 A3015 RMK A01 T03350090  RH  022%=      5-min Rain = 0
KHO1 201905Z 14008KT 34/09 A3015 RMK A01 T03360086  RH  021%=      5-min Rain = 0
KHO1 201906Z 14008KT 34/09 A3015 RMK A01 T03360087  RH  022%=      5-min Rain = 0
KHO1 201907Z 13010G15KT 34/09 A3015 RMK A01 T03380091  RH  022%=      5-min Rain = 0
KHO1 201908Z 15012KT 34/09 A3015 RMK A01 T03430089  RH  021%=      5-min Rain = 0
KHO1 201909Z 15013KT 34/08 A3015 RMK A01 T03430084  RH  020%=      5-min Rain = 0
KHO1 201910Z 15010KT 34/08 A3015 RMK A01 T03400081  RH  020%=      5-min Rain = 0
KHO1 201911Z 15008KT 34/08 A3015 RMK A01 T03390080  RH  020%=      5-min Rain = 0
KHO1 201912Z 17008KT 34/09 A3015 RMK A01 T03370088  RH  022%=      5-min Rain = 0
KHO1 201913Z 18005KT 34/09 A3015 RMK A01 T03350090  RH  022%=      5-min Rain = 0
KHO1 201914Z 10004KT 34/09 A3014 RMK A01 T03360093  RH  022%=      5-min Rain = 0
KHO1 201915Z 11006KT 34/09 A3014 RMK A01 T03400093  RH  022%=      5-min Rain = 0
KHO1 201916Z 14005KT 34/09 A3015 RMK A01 T03420092  RH  022%=      5-min Rain = 0
KHO1 201917Z 14005KT 34/09 A3015 RMK A01 T03430093  RH  022%=      5-min Rain = 0
KHO1 201918Z 14010KT 35/09 A3014 RMK A01 T03460086  RH  020%=      5-min Rain = 0
KHO1 201919Z 16010KT 35/08 A3015 RMK A01 T03480084  RH  020%=      5-min Rain = 0
KHO1 201920Z 15009G14KT 35/09 A3015 RMK A01 T03460085  RH  020%=      5-min Rain = 0
KHO1 201921Z 15011KT 35/08 A3015 RMK A01 T03480083  RH  020%=      5-min Rain = 0
KHO1 201922Z 17010KT 35/09 A3015 RMK A01 T03480087  RH  020%=      5-min Rain = 0
KHO1 201923Z 15009KT 35/09 A3014 RMK A01 T03490086  RH  020%=      5-min Rain = 0
KHO1 201924Z 16005KT 35/08 A3014 RMK A01 T03460084  RH  020%=      5-min Rain = 0
KHO1 201925Z 15004KT 34/08 A3014 RMK A01 T03420084  RH  020%=      5-min Rain = 0
KHO1 201926Z 15006G11KT 35/09 A3014 RMK A01 T03450086  RH  020%=      5-min Rain = 0
KHO1 201927Z 15011KT 35/08 A3014 RMK A01 T03450083  RH  020%=      5-min Rain = 0
KHO1 201928Z 17013G18KT 35/07 A3014 RMK A01 T03450072  RH  019%=      5-min Rain = 0
KHO1 201929Z 18012KT 35/06 A3014 RMK A01 T03450060  RH  017%=      5-min Rain = 0
KHO1 201930Z 17013KT 35/05 A3014 RMK A01 T03470054  RH  016%=      5-min Rain = 0
KHO1 201931Z 18011KT 35/05 A3014 RMK A01 T03510045  RH  015%=      5-min Rain = 0
KHO1 201932Z 17011KT 35/05 A3014 RMK A01 T03500047  RH  015%=      5-min Rain = 0
KHO1 201933Z 17011KT 35/06 A3014 RMK A01 T03510062  RH  017%=      5-min Rain = 0
KHO1 201934Z 16007KT 35/06 A3014 RMK A01 T03500062  RH  017%=      5-min Rain = 0
KHO1 201935Z 17011KT 35/07 A3014 RMK A01 T03520065  RH  017%=      5-min Rain = 0
KHO1 201936Z 19008KT 35/07 A3014 RMK A01 T03510065  RH  017%=      5-min Rain = 0
KHO1 201937Z 18009KT 35/06 A3014 RMK A01 T03500063  RH  017%=      5-min Rain = 0
KHO1 201938Z 16010KT 35/07 A3014 RMK A01 T03510068  RH  017%=      5-min Rain = 0
KHO1 201939Z 17012KT 35/06 A3014 RMK A01 T03540064  RH  017%=      5-min Rain = 0
KHO1 201940Z 18011G16KT 35/07 A3014 RMK A01 T03530068  RH  017%=      5-min Rain = 0
KHO1 201941Z 19009G14KT 35/07 A3014 RMK A01 T03540071  RH  018%=      5-min Rain = 0
KHO1 201942Z 20006KT 35/07 A3014 RMK A01 T03520073  RH  018%=      5-min Rain = 0
KHO1 201943Z 18008KT 35/07 A3014 RMK A01 T03530073  RH  018%=      5-min Rain = 0
KHO1 201944Z 19007KT 35/08 A3013 RMK A01 T03500075  RH  018%=      5-min Rain = 0
KHO1 201945Z 16007KT 35/08 A3013 RMK A01 T03510077  RH  019%=      5-min Rain = 0
KHO1 201946Z 15005KT 35/08 A3013 RMK A01 T03500077  RH  019%=      5-min Rain = 0
KHO1 201947Z 14008KT 35/08 A3013 RMK A01 T03510079  RH  019%=      5-min Rain = 0
KHO1 201948Z 15006G11KT 35/08 A3013 RMK A01 T03500077  RH  019%=      5-min Rain = 0
KHO1 201949Z 14011KT 35/08 A3013 RMK A01 T03510075  RH  018%=      5-min Rain = 0
KHO1 201950Z 13012KT 35/07 A3013 RMK A01 T03500068  RH  018%=      5-min Rain = 0
KHO1 201951Z 11012KT 35/06 A3013 RMK A01 T03510063  RH  017%=      5-min Rain = 0
KHO1 201952Z 13009KT 35/06 A3013 RMK A01 T03520064  RH  017%=      5-min Rain = 0
KHO1 201953Z 15010KT 35/07 A3013 RMK A01 T03540072  RH  018%=      5-min Rain = 0
KHO1 201954Z 18011KT 35/07 A3013 RMK A01 T03540068  RH  017%=      5-min Rain = 0
KHO1 201955Z 18012KT 35/07 A3013 RMK A01 T03490073  RH  018%=      5-min Rain = 0
KHO1 201956Z 17007KT 34/07 A3013 RMK A01 T03440074  RH  019%=      5-min Rain = 0
KHO1 201957Z 18007G12KT 35/08 A3013 RMK A01 T03460076  RH  019%=      5-min Rain = 0
KHO1 201958Z 18009KT 35/07 A3013 RMK A01 T03480070  RH  018%=      5-min Rain = 0
KHO1 201959Z 19008KT 35/07 A3013 RMK A01 T03500065  RH  017%=      5-min Rain = 0
KHO1 202000Z 20009KT 35/06 A3013 RMK A01 T03490063  RH  017%=      5-min Rain = 0
KHO1 202001Z 19008KT 35/06 A3013 RMK A01 T03490064  RH  017%=      5-min Rain = 0
KHO1 202002Z 16013G18KT 35/05 A3013 RMK A01 T03530054  RH  016%=      5-min Rain = 0
KHO1 202003Z 15014KT 35/05 A3013 RMK A01 T03530045  RH  015%=      5-min Rain = 0
KHO1 202004Z 14012KT 35/04 A3013 RMK A01 T03520043  RH  015%=      5-min Rain = 0
KHO1 202005Z 14012KT 35/04 A3013 RMK A01 T03510039  RH  014%=      5-min Rain = 0
KHO1 202006Z 14010KT 35/04 A3013 RMK A01 T03520044  RH  015%=      5-min Rain = 0
KHO1 202007Z 15009KT 35/05 A3013 RMK A01 T03540048  RH  015%=      5-min Rain = 0
KHO1 202008Z 14010KT 36/05 A3013 RMK A01 T03550046  RH  015%=      5-min Rain = 0
KHO1 202009Z 13011KT 35/04 A3013 RMK A01 T03540042  RH  014%=      5-min Rain = 0
KHO1 202010Z 15008KT 35/04 A3013 RMK A01 T03530035  RH  014%=      5-min Rain = 0
KHO1 202011Z 13009G14KT 36/03 A3013 RMK A01 T03550033  RH  013%=      5-min Rain = 0
KHO1 202012Z 11009KT 36/03 A3013 RMK A01 T03570025  RH  013%=      5-min Rain = 0
KHO1 202013Z 11008KT 36/03 A3013 RMK A01 T03590027  RH  013%=      5-min Rain = 0
KHO1 202014Z 11007KT 36/03 A3013 RMK A01 T03600032  RH  013%=      5-min Rain = 0
KHO1 202015Z 14006KT 36/04 A3013 RMK A01 T03590037  RH  013%=      5-min Rain = 0
KHO1 202016Z 15007KT 36/04 A3013 RMK A01 T03550040  RH  014%=      5-min Rain = 0
KHO1 202017Z 16010KT 35/04 A3013 RMK A01 T03540042  RH  014%=      5-min Rain = 0
KHO1 202018Z 15010KT 35/05 A3013 RMK A01 T03520047  RH  015%=      5-min Rain = 0
KHO1 202019Z 13007KT 35/05 A3013 RMK A01 T03510051  RH  015%=      5-min Rain = 0
KHO1 202020Z 15010KT 35/05 A3013 RMK A01 T03520052  RH  015%=      5-min Rain = 0
KHO1 202021Z 16009KT 35/05 A3013 RMK A01 T03540047  RH  015%=      5-min Rain = 0
KHO1 202022Z 16010KT 35/04 A3013 RMK A01 T03540040  RH  014%=      5-min Rain = 0
KHO1 202023Z 14010KT 35/04 A3013 RMK A01 T03540040  RH  014%=      5-min Rain = 0
KHO1 202024Z 14007KT 35/04 A3013 RMK A01 T03520041  RH  014%=      5-min Rain = 0
KHO1 202025Z 15006KT 35/04 A3013 RMK A01 T03500041  RH  015%=      5-min Rain = 0
KHO1 202026Z 16006KT 35/04 A3012 RMK A01 T03530042  RH  014%=      5-min Rain = 0
KHO1 202027Z 19006KT 35/04 A3013 RMK A01 T03530044  RH  015%=      5-min Rain = 0
KHO1 202028Z 17003KT 35/04 A3012 RMK A01 T03530043  RH  015%=      5-min Rain = 0
KHO1 202029Z 29001KT 36/04 A3012 RMK A01 T03560044  RH  014%=      5-min Rain = 0
KHO1 202030Z 29004KT 36/05 A3012 RMK A01 T03590047  RH  014%=      5-min Rain = 0
KHO1 202031Z 24003KT 36/05 A3012 RMK A01 T03620046  RH  014%=      5-min Rain = 0
KHO1 202032Z 15005KT 36/04 A3012 RMK A01 T03620044  RH  014%=      5-min Rain = 0
KHO1 202033Z 15009KT 36/05 A3012 RMK A01 T03630053  RH  015%=      5-min Rain = 0
KHO1 202034Z 15007KT 37/06 A3012 RMK A01 T03660056  RH  015%=      5-min Rain = 0
KHO1 202035Z 16011G17KT 36/05 A3012 RMK A01 T03630054  RH  015%=      5-min Rain = 0
KHO1 202036Z 17007KT 36/05 A3012 RMK A01 T03600052  RH  015%=      5-min Rain = 0
KHO1 202037Z 17006KT 36/05 A3012 RMK A01 T03610053  RH  015%=      5-min Rain = 0
KHO1 202038Z 16008KT 36/05 A3012 RMK A01 T03590052  RH  015%=      5-min Rain = 0
KHO1 202039Z 12011KT 36/05 A3012 RMK A01 T03570054  RH  015%=      5-min Rain = 0
KHO1 202040Z 12012KT 36/06 A3012 RMK A01 T03590055  RH  015%=      5-min Rain = 0
KHO1 202041Z 11011KT 36/06 A3012 RMK A01 T03580057  RH  016%=      5-min Rain = 0
KHO1 202042Z 13010KT 36/06 A3012 RMK A01 T03570058  RH  016%=      5-min Rain = 0
KHO1 202043Z 14008KT 36/06 A3012 RMK A01 T03550059  RH  016%=      5-min Rain = 0
KHO1 202044Z 16008KT 35/06 A3012 RMK A01 T03520059  RH  016%=      5-min Rain = 0
KHO1 202045Z 15003KT 35/06 A3011 RMK A01 T03510059  RH  016%=      5-min Rain = 0
KHO1 202046Z 13005KT 35/06 A3011 RMK A01 T03500060  RH  017%=      5-min Rain = 0
KHO1 202047Z 12010G17KT 35/06 A3011 RMK A01 T03520062  RH  017%=      5-min Rain = 0
KHO1 202048Z 16016KT 36/06 A3011 RMK A01 T03550062  RH  016%=      5-min Rain = 0
KHO1 202049Z 15016KT 36/06 A3011 RMK A01 T03550063  RH  016%=      5-min Rain = 0
KHO1 202050Z 15010KT 35/06 A3012 RMK A01 T03530062  RH  017%=      5-min Rain = 0
KHO1 202051Z 14009KT 35/06 A3011 RMK A01 T03500062  RH  017%=      5-min Rain = 0
KHO1 202052Z 12010KT 35/06 A3011 RMK A01 T03500062  RH  017%=      5-min Rain = 0
KHO1 202053Z 13010G20KT 35/06 A3011 RMK A01 T03520062  RH  017%=      5-min Rain = 0
KHO1 202054Z 13016G23KT 35/06 A3011 RMK A01 T03530059  RH  016%=      5-min Rain = 0
KHO1 202055Z 14013KT 35/06 A3011 RMK A01 T03540059  RH  016%=      5-min Rain = 0
KHO1 202056Z 14010KT 35/06 A3011 RMK A01 T03530058  RH  016%=      5-min Rain = 0
KHO1 202057Z 15007KT 35/06 A3011 RMK A01 T03520057  RH  016%=      5-min Rain = 0
KHO1 202058Z 14006KT 35/06 A3011 RMK A01 T03520056  RH  016%=      5-min Rain = 0
KHO1 202059Z 15007KT 35/06 A3011 RMK A01 T03520058  RH  016%=      5-min Rain = 0
KHO1 202100Z 17008KT 36/06 A3011 RMK A01 T03570057  RH  016%=      5-min Rain = 0
KHO1 202101Z 17009KT 36/06 A3011 RMK A01 T03600056  RH  015%=      5-min Rain = 0
KHO1 202102Z 16009KT 36/05 A3011 RMK A01 T03600052  RH  015%=      5-min Rain = 0
KHO1 202103Z 16008KT 36/05 A3011 RMK A01 T03570051  RH  015%=      5-min Rain = 0
KHO1 202104Z 16005KT 35/05 A3011 RMK A01 T03540050  RH  015%=      5-min Rain = 0
KHO1 202105Z 20008KT 35/05 A3011 RMK A01 T03540050  RH  015%=      5-min Rain = 0
KHO1 202106Z 18009KT 35/05 A3011 RMK A01 T03530052  RH  016%=      5-min Rain = 0
KHO1 202107Z 18008KT 35/06 A3011 RMK A01 T03530055  RH  016%=      5-min Rain = 0
KHO1 202108Z 14013KT 35/05 A3011 RMK A01 T03530054  RH  016%=      5-min Rain = 0
KHO1 202109Z 14013G22KT 36/06 A301 RMK A01 T03560055  RH  016%=      5-min Rain = 0
KHO1 202110Z 14017KT 36/05 A301 RMK A01 T03580051  RH  015%=      5-min Rain = 0
KHO1 202111Z 12013KT 36/05 A301 RMK A01 T03610051  RH  015%=      5-min Rain = 0
KHO1 202112Z 12011KT 36/05 A3011 RMK A01 T03630051  RH  015%=      5-min Rain = 0
KHO1 202113Z 12008KT 36/05 A301 RMK A01 T03640052  RH  015%=      5-min Rain = 0
KHO1 202114Z 10009KT 37/05 A301 RMK A01 T03650053  RH  015%=      5-min Rain = 0
KHO1 202115Z 10011G16KT 37/05 A301 RMK A01 T03690054  RH  014%=      5-min Rain = 0
KHO1 202116Z 12011KT 37/05 A3011 RMK A01 T03710053  RH  014%=      5-min Rain = 0
KHO1 202117Z 13011KT 37/05 A301 RMK A01 T03680052  RH  014%=      5-min Rain = 0
KHO1 202118Z 11008KT 36/05 A301 RMK A01 T03630051  RH  015%=      5-min Rain = 0
KHO1 202119Z 12006KT 36/05 A301 RMK A01 T03600052  RH  015%=      5-min Rain = 0
KHO1 202120Z 14011KT 36/05 A301 RMK A01 T03580048  RH  015%=      5-min Rain = 0
KHO1 202121Z 15007KT 36/05 A301 RMK A01 T03550047  RH  015%=      5-min Rain = 0
KHO1 202122Z 16010KT 36/05 A301 RMK A01 T03550048  RH  015%=      5-min Rain = 0
KHO1 202123Z 15014KT 35/05 A301 RMK A01 T03540054  RH  016%=      5-min Rain = 0
KHO1 202124Z 14013KT 35/06 A301 RMK A01 T03540060  RH  016%=      5-min Rain = 0
KHO1 202125Z 13014G20KT 35/07 A301 RMK A01 T03540066  RH  017%=      5-min Rain = 0
KHO1 202126Z 12011KT 35/07 A301 RMK A01 T03520071  RH  018%=      5-min Rain = 0
KHO1 202127Z 11009KT 35/07 A301 RMK A01 T03510072  RH  018%=      5-min Rain = 0
KHO1 202128Z 11008KT 35/07 A301 RMK A01 T03530073  RH  018%=      5-min Rain = 0
KHO1 202129Z 13007KT 36/07 A301 RMK A01 T03550072  RH  018%=      5-min Rain = 0
KHO1 202130Z 12009KT 35/07 A301 RMK A01 T03540072  RH  018%=      5-min Rain = 0
KHO1 202131Z 13012KT 36/07 A301 RMK A01 T03550073  RH  018%=      5-min Rain = 0
KHO1 202132Z 13013KT 36/07 A301 RMK A01 T03570072  RH  017%=      5-min Rain = 0
KHO1 202133Z 12011KT 36/07 A301 RMK A01 T03580070  RH  017%=      5-min Rain = 0
KHO1 202134Z 12010KT 36/07 A301 RMK A01 T03590070  RH  017%=      5-min Rain = 0
KHO1 202135Z 14011KT 36/07 A301 RMK A01 T03620069  RH  017%=      5-min Rain = 0
KHO1 202136Z 13015KT 36/07 A301 RMK A01 T03630065  RH  016%=      5-min Rain = 0
KHO1 202137Z 12013KT 37/06 A301 RMK A01 T03680061  RH  015%=      5-min Rain = 0
KHO1 202138Z 12012KT 37/06 A301 RMK A01 T03700059  RH  015%=      5-min Rain = 0
KHO1 202139Z 13014KT 37/06 A301 RMK A01 T03680058  RH  015%=      5-min Rain = 0
KHO1 202140Z 14015G20KT 37/06 A301 RMK A01 T03680057  RH  015%=      5-min Rain = 0
KHO1 202141Z 14015KT 36/06 A301 RMK A01 T03640055  RH  015%=      5-min Rain = 0
KHO1 202142Z 13009KT 36/06 A301 RMK A01 T03590057  RH  015%=      5-min Rain = 0
KHO1 202143Z 14012G17KT 36/06 A301 RMK A01 T03580060  RH  016%=      5-min Rain = 0
KHO1 202144Z 13011KT 36/06 A301 RMK A01 T03550062  RH  016%=      5-min Rain = 0
KHO1 202145Z 14008KT 35/06 A301 RMK A01 T03520062  RH  017%=      5-min Rain = 0
KHO1 202146Z 14007KT 35/06 A301 RMK A01 T03500062  RH  017%=      5-min Rain = 0
KHO1 202147Z 14007KT 35/06 A301 RMK A01 T03480062  RH  017%=      5-min Rain = 0
KHO1 202148Z 13006KT 35/06 A301 RMK A01 T03480063  RH  017%=      5-min Rain = 0
KHO1 202149Z 13007KT 35/06 A301 RMK A01 T03500063  RH  017%=      5-min Rain = 0
KHO1 202150Z 14008KT 35/07 A3009 RMK A01 T03520065  RH  017%=      5-min Rain = 0
KHO1 202151Z 14010KT 36/07 A3009 RMK A01 T03560067  RH  017%=      5-min Rain = 0
KHO1 202152Z 13010KT 36/07 A301 RMK A01 T03580066  RH  017%=      5-min Rain = 0
KHO1 202153Z 13013KT 36/07 A301 RMK A01 T03550065  RH  017%=      5-min Rain = 0
KHO1 202154Z 12015KT 35/06 A3009 RMK A01 T03510064  RH  017%=      5-min Rain = 0
KHO1 202155Z 11013KT 35/06 A3009 RMK A01 T03490063  RH  017%=      5-min Rain = 0
KHO1 202156Z 12010KT 35/07 A3009 RMK A01 T03480066  RH  017%=      5-min Rain = 0
KHO1 202157Z 12013KT 35/06 A301 RMK A01 T03480063  RH  017%=      5-min Rain = 0
KHO1 202158Z 11010KT 35/06 A3009 RMK A01 T03480062  RH  017%=      5-min Rain = 0
KHO1 202159Z 10011KT 35/06 A3009 RMK A01 T03480062  RH  017%=      5-min Rain = 0
KHO1 202200Z 10010KT 35/06 A3009 RMK A01 T03480063  RH  017%=      5-min Rain = 0
KHO1 202201Z 12009KT 35/06 A3009 RMK A01 T03480062  RH  017%=      5-min Rain = 0
KHO1 202202Z 12005KT 35/06 A3009 RMK A01 T03480062  RH  017%=      5-min Rain = 0
KHO1 202203Z 13008KT 35/06 A3009 RMK A01 T03480062  RH  017%=      5-min Rain = 0
KHO1 202204Z 12009KT 35/06 A3009 RMK A01 T03470061  RH  017%=      5-min Rain = 0
KHO1 202205Z 13011KT 35/06 A3009 RMK A01 T03470062  RH  017%=      5-min Rain = 0
KHO1 202206Z 13010KT 35/06 A3009 RMK A01 T03490063  RH  017%=      5-min Rain = 0
KHO1 202207Z 12010KT 35/06 A3009 RMK A01 T03540064  RH  017%=      5-min Rain = 0
KHO1 202208Z 12012KT 36/06 A3009 RMK A01 T03560063  RH  016%=      5-min Rain = 0
KHO1 202209Z 11009KT 36/07 A3009 RMK A01 T03580065  RH  016%=      5-min Rain = 0
KHO1 202210Z 11013KT 36/06 A3009 RMK A01 T03610062  RH  016%=      5-min Rain = 0
KHO1 202211Z 12012KT 36/06 A3009 RMK A01 T03620063  RH  016%=      5-min Rain = 0
KHO1 202212Z 11009KT 36/06 A3009 RMK A01 T03610061  RH  016%=      5-min Rain = 0
KHO1 202213Z 11008KT 36/06 A3009 RMK A01 T03610061  RH  016%=      5-min Rain = 0
KHO1 202214Z 12007KT 36/06 A3009 RMK A01 T03600063  RH  016%=      5-min Rain = 0
KHO1 202215Z 12008KT 36/06 A3009 RMK A01 T03610062  RH  016%=      5-min Rain = 0
KHO1 202216Z 13007KT 36/06 A3009 RMK A01 T03610063  RH  016%=      5-min Rain = 0
KHO1 202217Z 12011KT 36/06 A3009 RMK A01 T03610062  RH  016%=      5-min Rain = 0
KHO1 202218Z 13009KT 36/06 A3009 RMK A01 T03600061  RH  016%=      5-min Rain = 0
KHO1 202219Z 13012KT 36/06 A3009 RMK A01 T03600062  RH  016%=      5-min Rain = 0
KHO1 202220Z 14012KT 36/06 A3009 RMK A01 T03610064  RH  016%=      5-min Rain = 0
KHO1 202221Z 14014KT 36/06 A3009 RMK A01 T03610064  RH  016%=      5-min Rain = 0
KHO1 202222Z 14013KT 36/06 A3009 RMK A01 T03600064  RH  016%=      5-min Rain = 0
KHO1 202223Z 14014KT 36/07 A3009 RMK A01 T03610065  RH  016%=      5-min Rain = 0
KHO1 202224Z 14010KT 36/06 A3009 RMK A01 T03580063  RH  016%=      5-min Rain = 0
KHO1 202225Z 13009KT 36/06 A3009 RMK A01 T03560063  RH  017%=      5-min Rain = 0
KHO1 202226Z 13012KT 36/07 A3008 RMK A01 T03560065  RH  017%=      5-min Rain = 0
KHO1 202227Z 14010KT 36/06 A3009 RMK A01 T03590064  RH  016%=      5-min Rain = 0
KHO1 202228Z 14012KT 36/06 A3009 RMK A01 T03590062  RH  016%=      5-min Rain = 0
KHO1 202229Z 13010KT 36/06 A3009 RMK A01 T03580063  RH  016%=      5-min Rain = 0
KHO1 202230Z 13011KT 36/06 A3009 RMK A01 T03600063  RH  016%=      5-min Rain = 0
KHO1 202231Z 13010KT 36/06 A3009 RMK A01 T03560061  RH  016%=      5-min Rain = 0
KHO1 202232Z 13010KT 35/06 A3009 RMK A01 T03530062  RH  017%=      5-min Rain = 0
KHO1 202233Z 13009KT 36/06 A3009 RMK A01 T03560064  RH  017%=      5-min Rain = 0
KHO1 202234Z 12006KT 36/06 A3009 RMK A01 T03560063  RH  016%=      5-min Rain = 0
KHO1 202235Z 11009KT 36/06 A3009 RMK A01 T03570063  RH  016%=      5-min Rain = 0
KHO1 202236Z 12006KT 36/06 A3009 RMK A01 T03590061  RH  016%=      5-min Rain = 0
KHO1 202237Z 13005KT 36/06 A3009 RMK A01 T03570060  RH  016%=      5-min Rain = 0
KHO1 202238Z 11005KT 36/06 A3009 RMK A01 T03560062  RH  016%=      5-min Rain = 0
KHO1 202239Z 12010KT 36/06 A3009 RMK A01 T03580062  RH  016%=      5-min Rain = 0
KHO1 202240Z 12013KT 36/06 A3009 RMK A01 T03580062  RH  016%=      5-min Rain = 0
KHO1 202241Z 12012KT 35/06 A3009 RMK A01 T03540062  RH  016%=      5-min Rain = 0
KHO1 202242Z 12011KT 35/06 A3009 RMK A01 T03530062  RH  017%=      5-min Rain = 0
KHO1 202243Z 10010KT 35/06 A3009 RMK A01 T03530062  RH  017%=      5-min Rain = 0
KHO1 202244Z 10007KT 36/06 A3009 RMK A01 T03560062  RH  016%=      5-min Rain = 0
KHO1 202245Z 15011KT 36/06 A3009 RMK A01 T03570063  RH  016%=      5-min Rain = 0
KHO1 202246Z 15011KT 36/06 A3009 RMK A01 T03560062  RH  016%=      5-min Rain = 0
KHO1 202247Z 15012KT 36/06 A3009 RMK A01 T03560064  RH  017%=      5-min Rain = 0
KHO1 202248Z 16013KT 36/06 A3009 RMK A01 T03570063  RH  016%=      5-min Rain = 0
KHO1 202249Z 16013KT 36/06 A3009 RMK A01 T03550062  RH  016%=      5-min Rain = 0
KHO1 202250Z 16011KT 35/06 A3009 RMK A01 T03520062  RH  017%=      5-min Rain = 0
KHO1 202251Z 17009KT 35/06 A3009 RMK A01 T03510062  RH  017%=      5-min Rain = 0
KHO1 202252Z 17007KT 35/06 A3009 RMK A01 T03520063  RH  017%=      5-min Rain = 0
KHO1 202253Z 16005KT 35/06 A3009 RMK A01 T03530061  RH  016%=      5-min Rain = 0
KHO1 202254Z 12007KT 36/06 A3009 RMK A01 T03550062  RH  016%=      5-min Rain = 0
KHO1 202255Z 10012KT 36/06 A3009 RMK A01 T03600060  RH  016%=      5-min Rain = 0
KHO1 202256Z 11012KT 36/06 A3009 RMK A01 T03630056  RH  015%=      5-min Rain = 0
KHO1 202257Z 10010KT 36/06 A3009 RMK A01 T03640055  RH  015%=      5-min Rain = 0
KHO1 202258Z 12010KT 37/06 A3009 RMK A01 T03650055  RH  015%=      5-min Rain = 0
KHO1 202259Z 13010KT 36/05 A3009 RMK A01 T03630054  RH  015%=      5-min Rain = 0
KHO1 202300Z 12009KT 36/06 A3009 RMK A01 T03600056  RH  015%=      5-min Rain = 0
KHO1 202301Z 11011KT 36/06 A3009 RMK A01 T03620055  RH  015%=      5-min Rain = 0
KHO1 202302Z 10008KT 36/06 A3009 RMK A01 T03620055  RH  015%=      5-min Rain = 0
KHO1 202303Z 10009KT 36/06 A3009 RMK A01 T03620056  RH  015%=      5-min Rain = 0
KHO1 202304Z 12013KT 36/06 A3009 RMK A01 T03620056  RH  015%=      5-min Rain = 0
KHO1 202305Z 12013KT 36/05 A3008 RMK A01 T03590053  RH  015%=      5-min Rain = 0
KHO1 202306Z 13009KT 36/05 A3009 RMK A01 T03580053  RH  015%=      5-min Rain = 0
KHO1 202307Z 12010KT 36/06 A3009 RMK A01 T03590057  RH  016%=      5-min Rain = 0
KHO1 202308Z 12013KT 36/05 A3009 RMK A01 T03600053  RH  015%=      5-min Rain = 0
KHO1 202309Z 11009KT 36/05 A3009 RMK A01 T03590052  RH  015%=      5-min Rain = 0
KHO1 202310Z 12009KT 36/05 A3009 RMK A01 T03600054  RH  015%=      5-min Rain = 0
KHO1 202311Z 12008KT 36/05 A3009 RMK A01 T03580053  RH  015%=      5-min Rain = 0
KHO1 202312Z 10007KT 36/05 A3009 RMK A01 T03580054  RH  015%=      5-min Rain = 0
KHO1 202313Z 10006KT 36/05 A3009 RMK A01 T03570053  RH  015%=      5-min Rain = 0
KHO1 202314Z 11008KT 36/06 A3009 RMK A01 T03570055  RH  015%=      5-min Rain = 0
KHO1 202315Z 12009KT 36/05 A3009 RMK A01 T03550054  RH  015%=      5-min Rain = 0
KHO1 202316Z 13012KT 35/05 A3009 RMK A01 T03540051  RH  015%=      5-min Rain = 0
KHO1 202317Z 13013KT 35/05 A3009 RMK A01 T03530049  RH  015%=      5-min Rain = 0
KHO1 202318Z 13011KT 35/05 A3009 RMK A01 T03520049  RH  015%=      5-min Rain = 0
KHO1 202319Z 13010KT 35/05 A3009 RMK A01 T03520050  RH  015%=      5-min Rain = 0
KHO1 202320Z 12010KT 35/05 A3009 RMK A01 T03520049  RH  015%=      5-min Rain = 0
KHO1 202321Z 13008KT 35/05 A3009 RMK A01 T03520049  RH  015%=      5-min Rain = 0
KHO1 202322Z 13007KT 35/05 A3009 RMK A01 T03520049  RH  015%=      5-min Rain = 0
KHO1 202323Z 12007KT 35/05 A3009 RMK A01 T03520050  RH  015%=      5-min Rain = 0
KHO1 202324Z 13008KT 35/05 A3009 RMK A01 T03530049  RH  015%=      5-min Rain = 0
KHO1 202325Z 13010G15KT 35/05 A3009 RMK A01 T03530054  RH  016%=      5-min Rain = 0
KHO1 202326Z 13013KT 35/06 A3009 RMK A01 T03530056  RH  016%=      5-min Rain = 0
KHO1 202327Z 14014KT 35/06 A3009 RMK A01 T03520056  RH  016%=      5-min Rain = 0
KHO1 202328Z 13015KT 35/06 A3008 RMK A01 T03520055  RH  016%=      5-min Rain = 0
KHO1 202329Z 13014KT 35/05 A3008 RMK A01 T03510053  RH  016%=      5-min Rain = 0
KHO1 202330Z 13013KT 35/05 A3009 RMK A01 T03500053  RH  016%=      5-min Rain = 0
KHO1 202331Z 13011KT 35/05 A3009 RMK A01 T03500054  RH  016%=      5-min Rain = 0
KHO1 202332Z 13012KT 35/06 A3009 RMK A01 T03510055  RH  016%=      5-min Rain = 0
KHO1 202333Z 12011KT 35/06 A3009 RMK A01 T03520055  RH  016%=      5-min Rain = 0
KHO1 202334Z 12012G17KT 35/06 A3009 RMK A01 T03520055  RH  016%=      5-min Rain = 0
KHO1 202335Z 12012KT 35/05 A3009 RMK A01 T03530051  RH  015%=      5-min Rain = 0
KHO1 202336Z 12013KT 35/05 A3009 RMK A01 T03520049  RH  015%=      5-min Rain = 0
KHO1 202337Z 12011KT 35/05 A3009 RMK A01 T03510049  RH  015%=      5-min Rain = 0
KHO1 202338Z 11011KT 35/05 A3009 RMK A01 T03510052  RH  016%=      5-min Rain = 0
KHO1 202339Z 12013KT 35/05 A3009 RMK A01 T03530052  RH  016%=      5-min Rain = 0
KHO1 202340Z 13010KT 35/05 A3009 RMK A01 T03510054  RH  016%=      5-min Rain = 0
KHO1 202341Z 13008KT 35/05 A3009 RMK A01 T03510054  RH  016%=      5-min Rain = 0
KHO1 202342Z 12007KT 35/05 A3009 RMK A01 T03500054  RH  016%=      5-min Rain = 0
KHO1 202343Z 13007KT 35/05 A3009 RMK A01 T03510053  RH  016%=      5-min Rain = 0
KHO1 202344Z 13007KT 35/05 A3009 RMK A01 T03520051  RH  015%=      5-min Rain = 0
KHO1 202345Z 14008KT 35/05 A3009 RMK A01 T03530050  RH  015%=      5-min Rain = 0
KHO1 202346Z 13008KT 35/05 A3009 RMK A01 T03510048  RH  015%=      5-min Rain = 0
KHO1 202347Z 11010KT 35/05 A3009 RMK A01 T03510050  RH  015%=      5-min Rain = 0
KHO1 202348Z 12009KT 35/05 A3009 RMK A01 T03520052  RH  016%=      5-min Rain = 0
KHO1 202349Z 13007KT 35/05 A3009 RMK A01 T03520051  RH  016%=      5-min Rain = 0
KHO1 202350Z 13007KT 35/05 A3009 RMK A01 T03500053  RH  016%=      5-min Rain = 0
KHO1 202351Z 11008KT 35/05 A3009 RMK A01 T03490048  RH  015%=      5-min Rain = 0
KHO1 202352Z 12010KT 35/05 A3009 RMK A01 T03480045  RH  015%=      5-min Rain = 0
KHO1 202353Z 11011KT 35/04 A3009 RMK A01 T03480044  RH  015%=      5-min Rain = 0
KHO1 202354Z 12011KT 35/05 A3009 RMK A01 T03480051  RH  016%=      5-min Rain = 0
KHO1 202355Z 13013KT 35/06 A3009 RMK A01 T03470061  RH  017%=      5-min Rain = 0
KHO1 202356Z 13013KT 35/06 A3009 RMK A01 T03450061  RH  017%=      5-min Rain = 0
KHO1 202357Z 13012KT 35/06 A3009 RMK A01 T03450063  RH  017%=      5-min Rain = 0
KHO1 202358Z 13011KT 35/06 A3009 RMK A01 T03450064  RH  018%=      5-min Rain = 0
KHO1 202359Z 13009KT 35/07 A3009 RMK A01 T03460065  RH  018%=      5-min Rain = 0
KHO1 210000Z 14011KT 35/06 A3009 RMK A01 T03480063  RH  017%=      5-min Rain = 0
KHO1 210001Z 13013KT 35/06 A3009 RMK A01 T03480060  RH  017%=      5-min Rain = 0
KHO1 210002Z 12010KT 35/06 A3009 RMK A01 T03480061  RH  017%=      5-min Rain = 0
KHO1 210003Z 14010KT 35/06 A3009 RMK A01 T03480062  RH  017%=      5-min Rain = 0
KHO1 210004Z 14011KT 35/06 A3009 RMK A01 T03480062  RH  017%=      5-min Rain = 0
KHO1 210005Z 14009KT 35/06 A3009 RMK A01 T03460061  RH  017%=      5-min Rain = 0
KHO1 210006Z 14008KT 35/06 A3009 RMK A01 T03460063  RH  017%=      5-min Rain = 0
KHO1 210007Z 14012KT 35/07 A3009 RMK A01 T03460066  RH  018%=      5-min Rain = 0
KHO1 210008Z 12012G17KT 35/07 A3009 RMK A01 T03470068  RH  018%=      5-min Rain = 0
KHO1 210009Z 12012KT 35/07 A3009 RMK A01 T03470068  RH  018%=      5-min Rain = 0
KHO1 210010Z 12010KT 35/07 A3009 RMK A01 T03460068  RH  018%=      5-min Rain = 0
KHO1 210011Z 14010KT 35/07 A3009 RMK A01 T03470068  RH  018%=      5-min Rain = 0
KHO1 210012Z 13010KT 35/07 A3009 RMK A01 T03480069  RH  018%=      5-min Rain = 0
KHO1 210013Z 13013KT 35/07 A3009 RMK A01 T03480065  RH  017%=      5-min Rain = 0
KHO1 210014Z 13013KT 35/07 A3009 RMK A01 T03460066  RH  018%=      5-min Rain = 0
KHO1 210015Z 13012KT 35/07 A3009 RMK A01 T03460066  RH  018%=      5-min Rain = 0
KHO1 210016Z 13012KT 35/07 A3009 RMK A01 T03450067  RH  018%=      5-min Rain = 0
KHO1 210017Z 13011KT 35/07 A3009 RMK A01 T03450067  RH  018%=      5-min Rain = 0
KHO1 210018Z 14011KT 35/07 A3009 RMK A01 T03450067  RH  018%=      5-min Rain = 0
KHO1 210019Z 12011KT 35/07 A3009 RMK A01 T03450067  RH  018%=      5-min Rain = 0
KHO1 210020Z 12011KT 35/07 A3009 RMK A01 T03460066  RH  018%=      5-min Rain = 0
KHO1 210021Z 12012KT 35/07 A3009 RMK A01 T03450065  RH  018%=      5-min Rain = 0
KHO1 210022Z 12011KT 35/07 A3009 RMK A01 T03450066  RH  018%=      5-min Rain = 0
KHO1 210023Z 12012KT 35/07 A3009 RMK A01 T03450067  RH  018%=      5-min Rain = 0
KHO1 210024Z 13011KT 34/07 A3009 RMK A01 T03440068  RH  018%=      5-min Rain = 0
KHO1 210025Z 14011KT 35/07 A3009 RMK A01 T03450066  RH  018%=      5-min Rain = 0
KHO1 210026Z 12010KT 35/07 A3009 RMK A01 T03460067  RH  018%=      5-min Rain = 0
KHO1 210027Z 12012KT 35/07 A3009 RMK A01 T03460065  RH  018%=      5-min Rain = 0
KHO1 210028Z 12013KT 35/06 A3009 RMK A01 T03450064  RH  018%=      5-min Rain = 0
KHO1 210029Z 13012KT 34/06 A3009 RMK A01 T03440064  RH  018%=      5-min Rain = 0
KHO1 210030Z 14012KT 34/06 A3009 RMK A01 T03420064  RH  018%=      5-min Rain = 0
KHO1 210031Z 14011KT 34/06 A3009 RMK A01 T03400064  RH  018%=      5-min Rain = 0
KHO1 210032Z 14010KT 34/07 A3009 RMK A01 T03400065  RH  018%=      5-min Rain = 0
KHO1 210033Z 14012KT 34/07 A3009 RMK A01 T03400066  RH  018%=      5-min Rain = 0
KHO1 210034Z 12011KT 34/07 A3009 RMK A01 T03390067  RH  019%=      5-min Rain = 0
KHO1 210035Z 12011KT 34/07 A3009 RMK A01 T03400068  RH  019%=      5-min Rain = 0
KHO1 210036Z 12011KT 34/07 A3009 RMK A01 T03400067  RH  019%=      5-min Rain = 0
KHO1 210037Z 12010KT 34/07 A3009 RMK A01 T03400068  RH  019%=      5-min Rain = 0
KHO1 210038Z 12009KT 34/07 A3009 RMK A01 T03400067  RH  018%=      5-min Rain = 0
KHO1 210039Z 12009KT 34/07 A3009 RMK A01 T03400067  RH  018%=      5-min Rain = 0
KHO1 210040Z 12009KT 34/07 A3009 RMK A01 T03400067  RH  018%=      5-min Rain = 0
KHO1 210041Z 12008KT 34/07 A3009 RMK A01 T03400068  RH  019%=      5-min Rain = 0
KHO1 210042Z 11009KT 34/07 A3009 RMK A01 T03400068  RH  019%=      5-min Rain = 0
KHO1 210043Z 12010KT 34/07 A3009 RMK A01 T03400067  RH  018%=      5-min Rain = 0
KHO1 210044Z 12009KT 34/07 A3009 RMK A01 T03400067  RH  018%=      5-min Rain = 0
KHO1 210045Z 11010KT 34/07 A3009 RMK A01 T03400067  RH  018%=      5-min Rain = 0
KHO1 210046Z 13008KT 34/07 A3009 RMK A01 T03390067  RH  019%=      5-min Rain = 0
KHO1 210047Z 13010KT 34/07 A3009 RMK A01 T03390067  RH  019%=      5-min Rain = 0
KHO1 210048Z 13012KT 34/07 A3009 RMK A01 T03380066  RH  019%=      5-min Rain = 0
KHO1 210049Z 13009G14KT 34/07 A3009 RMK A01 T03380068  RH  019%=      5-min Rain = 0
KHO1 210050Z 13011KT 34/07 A3009 RMK A01 T03380070  RH  019%=      5-min Rain = 0
KHO1 210051Z 12012KT 34/07 A3009 RMK A01 T03370071  RH  019%=      5-min Rain = 0
KHO1 210052Z 13008KT 34/07 A3009 RMK A01 T03370071  RH  019%=      5-min Rain = 0
KHO1 210053Z 13010KT 34/07 A3009 RMK A01 T03370072  RH  019%=      5-min Rain = 0
KHO1 210054Z 13011KT 34/07 A3009 RMK A01 T03360070  RH  019%=      5-min Rain = 0
KHO1 210055Z 12010KT 34/07 A3009 RMK A01 T03360071  RH  019%=      5-min Rain = 0
KHO1 210056Z 13011KT 34/07 A3009 RMK A01 T03360071  RH  019%=      5-min Rain = 0
KHO1 210057Z 13009KT 34/07 A3009 RMK A01 T03360071  RH  019%=      5-min Rain = 0
KHO1 210058Z 12011KT 34/07 A3009 RMK A01 T03350072  RH  020%=      5-min Rain = 0
KHO1 210059Z 13011KT 34/07 A3009 RMK A01 T03350072  RH  020%=      5-min Rain = 0
KHO1 210100Z 12009KT 34/07 A3009 RMK A01 T03350072  RH  020%=      5-min Rain = 0
KHO1 210101Z 12009KT 34/07 A3009 RMK A01 T03350072  RH  020%=      5-min Rain = 0
KHO1 210102Z 12011KT 33/07 A3009 RMK A01 T03340072  RH  020%=      5-min Rain = 0
KHO1 210103Z 12013KT 33/07 A3009 RMK A01 T03340072  RH  020%=      5-min Rain = 0
KHO1 210104Z 12011KT 33/07 A3009 RMK A01 T03330072  RH  020%=      5-min Rain = 0
KHO1 210105Z 13008KT 33/07 A3009 RMK A01 T03330073  RH  020%=      5-min Rain = 0
KHO1 210106Z 12009KT 33/07 A3009 RMK A01 T03320074  RH  020%=      5-min Rain = 0
KHO1 210107Z 12011KT 33/08 A3009 RMK A01 T03310075  RH  021%=      5-min Rain = 0
KHO1 210108Z 13008KT 33/08 A3009 RMK A01 T03310077  RH  021%=      5-min Rain = 0
KHO1 210109Z 13012KT 33/08 A3009 RMK A01 T03300080  RH  021%=      5-min Rain = 0
KHO1 210110Z 12011KT 33/08 A3009 RMK A01 T03290081  RH  021%=      5-min Rain = 0
KHO1 210111Z 12009KT 33/08 A3009 RMK A01 T03290081  RH  022%=      5-min Rain = 0
KHO1 210112Z 12010KT 33/08 A3009 RMK A01 T03280082  RH  022%=      5-min Rain = 0
KHO1 210113Z 13012KT 33/08 A3009 RMK A01 T03280082  RH  022%=      5-min Rain = 0
KHO1 210114Z 12010KT 33/08 A3009 RMK A01 T03280083  RH  022%=      5-min Rain = 0
KHO1 210115Z 12008KT 33/08 A3009 RMK A01 T03280083  RH  022%=      5-min Rain = 0
KHO1 210116Z 12008KT 33/08 A3009 RMK A01 T03270084  RH  022%=      5-min Rain = 0
KHO1 210117Z 12009KT 33/08 A3009 RMK A01 T03270084  RH  022%=      5-min Rain = 0
KHO1 210118Z 13008KT 33/08 A3009 RMK A01 T03260084  RH  022%=      5-min Rain = 0
KHO1 210119Z 13011KT 33/08 A3009 RMK A01 T03260084  RH  022%=      5-min Rain = 0
KHO1 210120Z 12009KT 33/08 A3009 RMK A01 T03250084  RH  022%=      5-min Rain = 0
KHO1 210121Z 12009KT 33/09 A3009 RMK A01 T03250085  RH  023%=      5-min Rain = 0
KHO1 210122Z 12011KT 33/08 A3009 RMK A01 T03250084  RH  023%=      5-min Rain = 0
KHO1 210123Z 13012KT 33/08 A3009 RMK A01 T03250084  RH  022%=      5-min Rain = 0
KHO1 210124Z 13010KT 33/08 A301 RMK A01 T03250084  RH  023%=      5-min Rain = 0
KHO1 210125Z 12010KT 33/09 A3009 RMK A01 T03250085  RH  023%=      5-min Rain = 0
KHO1 210126Z 12012KT 32/08 A301 RMK A01 T03240084  RH  023%=      5-min Rain = 0
KHO1 210127Z 13013KT 32/08 A3009 RMK A01 T03240084  RH  023%=      5-min Rain = 0
KHO1 210128Z 13011KT 32/08 A301 RMK A01 T03240084  RH  023%=      5-min Rain = 0
KHO1 210129Z 13010KT 32/08 A301 RMK A01 T03240084  RH  023%=      5-min Rain = 0
KHO1 210130Z 13009KT 32/08 A301 RMK A01 T03230084  RH  023%=      5-min Rain = 0
KHO1 210131Z 12011KT 32/08 A301 RMK A01 T03230083  RH  023%=      5-min Rain = 0
KHO1 210132Z 12012KT 32/08 A301 RMK A01 T03230083  RH  023%=      5-min Rain = 0
KHO1 210133Z 13008KT 32/08 A301 RMK A01 T03230083  RH  023%=      5-min Rain = 0
KHO1 210134Z 12012KT 32/08 A301 RMK A01 T03230082  RH  023%=      5-min Rain = 0
KHO1 210135Z 13011KT 32/08 A301 RMK A01 T03230081  RH  022%=      5-min Rain = 0
KHO1 210136Z 12009KT 32/08 A301 RMK A01 T03220082  RH  023%=      5-min Rain = 0
KHO1 210137Z 13009KT 32/08 A301 RMK A01 T03220082  RH  023%=      5-min Rain = 0
KHO1 210138Z 13009KT 32/08 A301 RMK A01 T03220081  RH  023%=      5-min Rain = 0
KHO1 210139Z 13010KT 32/08 A301 RMK A01 T03210081  RH  023%=      5-min Rain = 0
KHO1 210140Z 13009KT 32/08 A301 RMK A01 T03200081  RH  023%=      5-min Rain = 0
KHO1 210141Z 13011KT 32/08 A301 RMK A01 T03200081  RH  023%=      5-min Rain = 0
KHO1 210142Z 13010KT 32/08 A301 RMK A01 T03200080  RH  023%=      5-min Rain = 0
KHO1 210143Z 13012KT 32/08 A301 RMK A01 T03200080  RH  023%=      5-min Rain = 0
KHO1 210144Z 13011KT 32/08 A301 RMK A01 T03200080  RH  022%=      5-min Rain = 0
KHO1 210145Z 12012KT 32/08 A301 RMK A01 T03200079  RH  022%=      5-min Rain = 0
KHO1 210146Z 13009KT 32/08 A301 RMK A01 T03200080  RH  022%=      5-min Rain = 0
KHO1 210147Z 13011KT 32/08 A301 RMK A01 T03200079  RH  023%=      5-min Rain = 0
KHO1 210148Z 13010G15KT 32/08 A301 RMK A01 T03190080  RH  023%=      5-min Rain = 0
KHO1 210149Z 13012KT 32/08 A301 RMK A01 T03190080  RH  023%=      5-min Rain = 0
KHO1 210150Z 13008KT 32/08 A301 RMK A01 T03190080  RH  023%=      5-min Rain = 0
KHO1 210151Z 13009KT 32/08 A301 RMK A01 T03180080  RH  023%=      5-min Rain = 0
KHO1 210152Z 12010KT 32/08 A301 RMK A01 T03180081  RH  023%=      5-min Rain = 0
KHO1 210153Z 13010KT 32/08 A301 RMK A01 T03180081  RH  023%=      5-min Rain = 0
KHO1 210154Z 12010KT 32/08 A301 RMK A01 T03180082  RH  023%=      5-min Rain = 0
KHO1 210155Z 13008KT 32/08 A301 RMK A01 T03180082  RH  023%=      5-min Rain = 0
KHO1 210156Z 13008KT 32/08 A301 RMK A01 T03170082  RH  023%=      5-min Rain = 0
KHO1 210157Z 12008KT 32/08 A3011 RMK A01 T03160083  RH  023%=      5-min Rain = 0
KHO1 210158Z 13011KT 32/08 A3011 RMK A01 T03160083  RH  024%=      5-min Rain = 0
KHO1 210159Z 13011KT 32/08 A3011 RMK A01 T03160083  RH  024%=      5-min Rain = 0
KHO1 210200Z 13012KT 32/08 A3011 RMK A01 T03160083  RH  024%=      5-min Rain = 0
KHO1 210201Z 13012KT 32/08 A3011 RMK A01 T03160084  RH  024%=      5-min Rain = 0
KHO1 210202Z 13013KT 32/08 A3011 RMK A01 T03160084  RH  024%=      5-min Rain = 0
KHO1 210203Z 13013KT 32/08 A3011 RMK A01 T03160084  RH  024%=      5-min Rain = 0
KHO1 210204Z 13010KT 32/08 A3011 RMK A01 T03160084  RH  024%=      5-min Rain = 0
KHO1 210205Z 13011KT 32/09 A3011 RMK A01 T03150085  RH  024%=      5-min Rain = 0
KHO1 210206Z 13012KT 32/09 A3011 RMK A01 T03150085  RH  024%=      5-min Rain = 0
KHO1 210207Z 13012KT 32/09 A3011 RMK A01 T03150085  RH  024%=      5-min Rain = 0
KHO1 210208Z 13010KT 31/09 A3011 RMK A01 T03140085  RH  024%=      5-min Rain = 0
KHO1 210209Z 13011KT 31/09 A3011 RMK A01 T03130085  RH  024%=      5-min Rain = 0
KHO1 210210Z 13012KT 31/09 A3011 RMK A01 T03130085  RH  024%=      5-min Rain = 0
KHO1 210211Z 14011KT 31/09 A3011 RMK A01 T03130085  RH  024%=      5-min Rain = 0
KHO1 210212Z 13011KT 31/09 A3011 RMK A01 T03130085  RH  024%=      5-min Rain = 0
KHO1 210213Z 13011KT 31/08 A3011 RMK A01 T03130084  RH  024%=      5-min Rain = 0
KHO1 210214Z 14011KT 31/08 A3011 RMK A01 T03120084  RH  024%=      5-min Rain = 0
KHO1 210215Z 14009KT 31/08 A3011 RMK A01 T03120084  RH  024%=      5-min Rain = 0
KHO1 210216Z 14009KT 31/08 A3011 RMK A01 T03110084  RH  024%=      5-min Rain = 0
KHO1 210217Z 14009KT 31/08 A3011 RMK A01 T03100084  RH  025%=      5-min Rain = 0
KHO1 210218Z 14008KT 31/08 A3011 RMK A01 T03100084  RH  025%=      5-min Rain = 0
KHO1 210219Z 14009KT 31/08 A3011 RMK A01 T03100084  RH  025%=      5-min Rain = 0
KHO1 210220Z 14010KT 31/08 A3011 RMK A01 T03100084  RH  025%=      5-min Rain = 0
KHO1 210221Z 14008KT 31/08 A3011 RMK A01 T03100084  RH  025%=      5-min Rain = 0
KHO1 210222Z 14009KT 31/09 A3011 RMK A01 T03100085  RH  025%=      5-min Rain = 0
KHO1 210223Z 14010KT 31/08 A3011 RMK A01 T03100084  RH  025%=      5-min Rain = 0
KHO1 210224Z 14008KT 31/08 A3011 RMK A01 T03100084  RH  025%=      5-min Rain = 0
KHO1 210225Z 14008KT 31/08 A3011 RMK A01 T03090084  RH  025%=      5-min Rain = 0
KHO1 210226Z 14008KT 31/08 A3011 RMK A01 T03070084  RH  025%=      5-min Rain = 0
KHO1 210227Z 14008KT 31/08 A3011 RMK A01 T03060084  RH  025%=      5-min Rain = 0
KHO1 210228Z 14008KT 31/08 A3011 RMK A01 T03060084  RH  025%=      5-min Rain = 0
KHO1 210229Z 14008KT 31/08 A3011 RMK A01 T03060084  RH  025%=      5-min Rain = 0
KHO1 210230Z 14008KT 31/08 A3011 RMK A01 T03070084  RH  025%=      5-min Rain = 0
KHO1 210231Z 13009KT 31/08 A3011 RMK A01 T03060084  RH  025%=      5-min Rain = 0
KHO1 210232Z 14008KT 31/08 A3011 RMK A01 T03070084  RH  025%=      5-min Rain = 0
KHO1 210233Z 14007KT 31/08 A3011 RMK A01 T03070084  RH  025%=      5-min Rain = 0
KHO1 210234Z 13008KT 31/08 A3011 RMK A01 T03060084  RH  025%=      5-min Rain = 0
KHO1 210235Z 13008KT 31/08 A3012 RMK A01 T03050084  RH  025%=      5-min Rain = 0
KHO1 210236Z 13008KT 31/08 A3012 RMK A01 T03050084  RH  025%=      5-min Rain = 0
KHO1 210237Z 13008KT 30/08 A3012 RMK A01 T03040084  RH  025%=      5-min Rain = 0
KHO1 210238Z 13009KT 31/08 A3012 RMK A01 T03050084  RH  025%=      5-min Rain = 0
KHO1 210239Z 13009KT 31/08 A3011 RMK A01 T03050084  RH  025%=      5-min Rain = 0
KHO1 210240Z 13008KT 31/08 A3012 RMK A01 T03050084  RH  025%=      5-min Rain = 0
KHO1 210241Z 13009KT 31/08 A3012 RMK A01 T03050083  RH  025%=      5-min Rain = 0
KHO1 210242Z 14010KT 31/08 A3012 RMK A01 T03060083  RH  025%=      5-min Rain = 0
KHO1 210243Z 13009KT 31/08 A3012 RMK A01 T03060082  RH  025%=      5-min Rain = 0
KHO1 210244Z 13008KT 31/08 A3012 RMK A01 T03060082  RH  025%=      5-min Rain = 0
KHO1 210245Z 13011KT 31/08 A3012 RMK A01 T03060082  RH  025%=      5-min Rain = 0
KHO1 210246Z 13008KT 31/08 A3012 RMK A01 T03060082  RH  025%=      5-min Rain = 0
KHO1 210247Z 13009KT 31/08 A3012 RMK A01 T03050082  RH  025%=      5-min Rain = 0
KHO1 210248Z 13008KT 31/08 A3012 RMK A01 T03050082  RH  025%=      5-min Rain = 0
KHO1 210249Z 13009KT 30/08 A3012 RMK A01 T03040082  RH  025%=      5-min Rain = 0
KHO1 210250Z 13009KT 31/08 A3012 RMK A01 T03050082  RH  025%=      5-min Rain = 0
KHO1 210251Z 13010KT 31/08 A3012 RMK A01 T03050082  RH  025%=      5-min Rain = 0
KHO1 210252Z 14011KT 31/08 A3012 RMK A01 T03060082  RH  025%=      5-min Rain = 0
KHO1 210253Z 13011KT 31/08 A3012 RMK A01 T03060081  RH  025%=      5-min Rain = 0
KHO1 210254Z 14010KT 31/08 A3012 RMK A01 T03050082  RH  025%=      5-min Rain = 0
KHO1 210255Z 13011KT 31/08 A3012 RMK A01 T03050082  RH  025%=      5-min Rain = 0
KHO1 210256Z 14008KT 31/08 A3012 RMK A01 T03050082  RH  025%=      5-min Rain = 0
KHO1 210257Z 13009KT 30/08 A3012 RMK A01 T03040082  RH  025%=      5-min Rain = 0
KHO1 210258Z 14009KT 30/08 A3012 RMK A01 T03040082  RH  025%=      5-min Rain = 0
KHO1 210259Z 13010KT 30/08 A3012 RMK A01 T03030082  RH  025%=      5-min Rain = 0
KHO1 210300Z 13010KT 30/08 A3012 RMK A01 T03040083  RH  025%=      5-min Rain = 0
KHO1 210301Z 14011KT 30/08 A3012 RMK A01 T03040083  RH  025%=      5-min Rain = 0
KHO1 210302Z 14010KT 30/08 A3012 RMK A01 T03040083  RH  025%=      5-min Rain = 0
KHO1 210303Z 14009KT 30/08 A3012 RMK A01 T03040083  RH  025%=      5-min Rain = 0
KHO1 210304Z 14009KT 30/08 A3013 RMK A01 T03030083  RH  025%=      5-min Rain = 0
KHO1 210305Z 13010KT 30/08 A3013 RMK A01 T03020084  RH  026%=      5-min Rain = 0
KHO1 210306Z 14009KT 30/08 A3013 RMK A01 T03020084  RH  026%=      5-min Rain = 0
KHO1 210307Z 13009KT 30/08 A3013 RMK A01 T03020084  RH  026%=      5-min Rain = 0
KHO1 210308Z 14009KT 30/08 A3013 RMK A01 T03010084  RH  026%=      5-min Rain = 0
KHO1 210309Z 13008KT 30/09 A3013 RMK A01 T03000085  RH  026%=      5-min Rain = 0
KHO1 210310Z 14010KT 30/09 A3013 RMK A01 T03000085  RH  026%=      5-min Rain = 0
KHO1 210311Z 14009KT 30/09 A3013 RMK A01 T03000085  RH  026%=      5-min Rain = 0
KHO1 210312Z 14009KT 30/09 A3013 RMK A01 T03000085  RH  026%=      5-min Rain = 0
KHO1 210313Z 14010KT 30/09 A3013 RMK A01 T03000085  RH  026%=      5-min Rain = 0
KHO1 210314Z 14010KT 30/09 A3013 RMK A01 T03000085  RH  026%=      5-min Rain = 0
KHO1 210315Z 14009KT 30/09 A3013 RMK A01 T03000085  RH  026%=      5-min Rain = 0
KHO1 210316Z 14009KT 30/09 A3013 RMK A01 T02980085  RH  026%=      5-min Rain = 0
KHO1 210317Z 13010KT 30/09 A3013 RMK A01 T02980085  RH  026%=      5-min Rain = 0
KHO1 210318Z 14010KT 30/09 A3013 RMK A01 T02990085  RH  026%=      5-min Rain = 0
KHO1 210319Z 13009KT 30/09 A3013 RMK A01 T02990086  RH  026%=      5-min Rain = 0
KHO1 210320Z 14009KT 30/09 A3013 RMK A01 T02980086  RH  027%=      5-min Rain = 0
KHO1 210321Z 14009KT 30/09 A3013 RMK A01 T02980086  RH  027%=      5-min Rain = 0
KHO1 210322Z 14009KT 30/09 A3013 RMK A01 T02980086  RH  027%=      5-min Rain = 0
KHO1 210323Z 14010KT 30/09 A3013 RMK A01 T02990086  RH  027%=      5-min Rain = 0
KHO1 210324Z 14010KT 30/09 A3013 RMK A01 T02980086  RH  027%=      5-min Rain = 0
KHO1 210325Z 14009KT 30/09 A3013 RMK A01 T02980086  RH  027%=      5-min Rain = 0
KHO1 210326Z 14009KT 30/09 A3013 RMK A01 T02980086  RH  027%=      5-min Rain = 0
KHO1 210327Z 14010KT 30/09 A3013 RMK A01 T02980086  RH  027%=      5-min Rain = 0
KHO1 210328Z 14009KT 30/09 A3013 RMK A01 T02980086  RH  027%=      5-min Rain = 0
KHO1 210329Z 14009KT 30/09 A3013 RMK A01 T02970086  RH  027%=      5-min Rain = 0
KHO1 210330Z 14008KT 30/09 A3013 RMK A01 T02970086  RH  027%=      5-min Rain = 0
KHO1 210331Z 14010KT 30/09 A3013 RMK A01 T02970086  RH  027%=      5-min Rain = 0
KHO1 210332Z 14009KT 30/09 A3013 RMK A01 T02970086  RH  027%=      5-min Rain = 0
KHO1 210333Z 14009KT 30/09 A3013 RMK A01 T02970086  RH  027%=      5-min Rain = 0
KHO1 210334Z 14009KT 30/09 A3014 RMK A01 T02970086  RH  027%=      5-min Rain = 0
KHO1 210335Z 14010KT 30/09 A3014 RMK A01 T02980086  RH  027%=      5-min Rain = 0
KHO1 210336Z 15008KT 30/09 A3014 RMK A01 T02980086  RH  027%=      5-min Rain = 0
KHO1 210337Z 14008KT 30/09 A3014 RMK A01 T02970085  RH  027%=      5-min Rain = 0
KHO1 210338Z 15008KT 30/09 A3014 RMK A01 T02970086  RH  027%=      5-min Rain = 0
KHO1 210339Z 15007KT 30/09 A3014 RMK A01 T02970086  RH  027%=      5-min Rain = 0
KHO1 210340Z 14009KT 30/09 A3014 RMK A01 T02960086  RH  027%=      5-min Rain = 0
KHO1 210341Z 15009KT 30/09 A3014 RMK A01 T02970086  RH  027%=      5-min Rain = 0
KHO1 210342Z 14008KT 30/09 A3014 RMK A01 T02960086  RH  027%=      5-min Rain = 0
KHO1 210343Z 14010KT 30/09 A3014 RMK A01 T02960086  RH  027%=      5-min Rain = 0
KHO1 210344Z 14011KT 30/09 A3014 RMK A01 T02960086  RH  027%=      5-min Rain = 0
KHO1 210345Z 14011KT 30/09 A3014 RMK A01 T02970087  RH  027%=      5-min Rain = 0
KHO1 210346Z 14012KT 30/09 A3014 RMK A01 T02970087  RH  027%=      5-min Rain = 0
KHO1 210347Z 14012KT 30/09 A3014 RMK A01 T02970087  RH  027%=      5-min Rain = 0
KHO1 210348Z 14010KT 30/09 A3014 RMK A01 T02960087  RH  027%=      5-min Rain = 0
KHO1 210349Z 14010KT 30/09 A3014 RMK A01 T02960087  RH  027%=      5-min Rain = 0
KHO1 210350Z 14011KT 30/09 A3014 RMK A01 T02950087  RH  027%=      5-min Rain = 0
KHO1 210351Z 14010KT 30/09 A3014 RMK A01 T02950087  RH  027%=      5-min Rain = 0
KHO1 210352Z 13012KT 30/09 A3014 RMK A01 T02950087  RH  027%=      5-min Rain = 0
KHO1 210353Z 14013KT 30/09 A3014 RMK A01 T02950087  RH  027%=      5-min Rain = 0
KHO1 210354Z 14013KT 30/09 A3014 RMK A01 T02950087  RH  027%=      5-min Rain = 0
KHO1 210355Z 14010KT 30/09 A3014 RMK A01 T02950087  RH  027%=      5-min Rain = 0
KHO1 210356Z 14011KT 29/09 A3014 RMK A01 T02940087  RH  027%=      5-min Rain = 0
KHO1 210357Z 14009KT 29/09 A3014 RMK A01 T02930087  RH  028%=      5-min Rain = 0
KHO1 210358Z 14011KT 29/09 A3014 RMK A01 T02930088  RH  028%=      5-min Rain = 0
KHO1 210359Z 14010KT 29/09 A3014 RMK A01 T02920088  RH  028%=      5-min Rain = 0
KHO1 210400Z 14010KT 29/09 A3014 RMK A01 T02920088  RH  028%=      5-min Rain = 0
KHO1 210401Z 14010KT 29/09 A3014 RMK A01 T02910088  RH  028%=      5-min Rain = 0
KHO1 210402Z 14011KT 29/09 A3014 RMK A01 T02910088  RH  028%=      5-min Rain = 0
KHO1 210403Z 14010KT 29/09 A3014 RMK A01 T02910088  RH  028%=      5-min Rain = 0
KHO1 210404Z 14009KT 29/09 A3014 RMK A01 T02900088  RH  028%=      5-min Rain = 0
KHO1 210405Z 14009KT 29/09 A3014 RMK A01 T02900088  RH  028%=      5-min Rain = 0
KHO1 210406Z 14010KT 29/09 A3014 RMK A01 T02890088  RH  028%=      5-min Rain = 0
KHO1 210407Z 14010KT 29/09 A3014 RMK A01 T02900088  RH  028%=      5-min Rain = 0
KHO1 210408Z 14010KT 29/09 A3014 RMK A01 T02900088  RH  028%=      5-min Rain = 0
KHO1 210409Z 14009KT 29/09 A3014 RMK A01 T02890088  RH  028%=      5-min Rain = 0
KHO1 210410Z 14009KT 29/09 A3014 RMK A01 T02890088  RH  028%=      5-min Rain = 0
KHO1 210411Z 14011KT 29/09 A3014 RMK A01 T02890089  RH  028%=      5-min Rain = 0
KHO1 210412Z 14010KT 29/09 A3014 RMK A01 T02890089  RH  028%=      5-min Rain = 0
KHO1 210413Z 14011KT 29/09 A3014 RMK A01 T02890088  RH  029%=      5-min Rain = 0
KHO1 210414Z 14009KT 29/09 A3014 RMK A01 T02890088  RH  029%=      5-min Rain = 0
KHO1 210415Z 14009KT 29/09 A3014 RMK A01 T02880088  RH  029%=      5-min Rain = 0
KHO1 210416Z 14010KT 29/09 A3014 RMK A01 T02880088  RH  029%=      5-min Rain = 0
KHO1 210417Z 14010KT 29/09 A3015 RMK A01 T02880088  RH  029%=      5-min Rain = 0
KHO1 210418Z 14011KT 29/09 A3014 RMK A01 T02880089  RH  029%=      5-min Rain = 0
KHO1 210419Z 14009KT 29/09 A3014 RMK A01 T02890089  RH  029%=      5-min Rain = 0
KHO1 210420Z 15010KT 29/09 A3014 RMK A01 T02880089  RH  029%=      5-min Rain = 0
KHO1 210421Z 15010KT 29/09 A3014 RMK A01 T02880089  RH  029%=      5-min Rain = 0
KHO1 210422Z 15011KT 29/09 A3014 RMK A01 T02890089  RH  029%=      5-min Rain = 0
KHO1 210423Z 14010KT 29/09 A3014 RMK A01 T02900089  RH  029%=      5-min Rain = 0
KHO1 210424Z 14010KT 29/09 A3014 RMK A01 T02900089  RH  028%=      5-min Rain = 0
KHO1 210425Z 15011KT 29/09 A3014 RMK A01 T02900089  RH  029%=      5-min Rain = 0
KHO1 210426Z 15011KT 29/09 A3014 RMK A01 T02900089  RH  029%=      5-min Rain = 0
KHO1 210427Z 14010KT 29/09 A3014 RMK A01 T02900089  RH  028%=      5-min Rain = 0
KHO1 210428Z 14011KT 29/09 A3014 RMK A01 T02900089  RH  029%=      5-min Rain = 0
KHO1 210429Z 15011KT 29/09 A3014 RMK A01 T02900089  RH  028%=      5-min Rain = 0
KHO1 210430Z 15010KT 29/09 A3014 RMK A01 T02900089  RH  028%=      5-min Rain = 0
KHO1 210431Z 15011KT 29/09 A3014 RMK A01 T02890089  RH  029%=      5-min Rain = 0
KHO1 210432Z 15011KT 29/09 A3014 RMK A01 T02890089  RH  029%=      5-min Rain = 0
KHO1 210433Z 15009KT 29/09 A3014 RMK A01 T02890089  RH  029%=      5-min Rain = 0
KHO1 210434Z 15012KT 29/09 A3014 RMK A01 T02890089  RH  029%=      5-min Rain = 0
KHO1 210435Z 15010KT 29/09 A3014 RMK A01 T02890089  RH  029%=      5-min Rain = 0
KHO1 210436Z 15011KT 29/09 A3014 RMK A01 T02890090  RH  029%=      5-min Rain = 0
KHO1 210437Z 15009KT 29/09 A3014 RMK A01 T02880089  RH  029%=      5-min Rain = 0
KHO1 210438Z 15010KT 29/09 A3014 RMK A01 T02870089  RH  029%=      5-min Rain = 0
KHO1 210439Z 15011KT 29/09 A3014 RMK A01 T02880090  RH  029%=      5-min Rain = 0
KHO1 210440Z 15010KT 29/09 A3014 RMK A01 T02880089  RH  029%=      5-min Rain = 0
KHO1 210441Z 15011KT 29/09 A3014 RMK A01 T02870090  RH  029%=      5-min Rain = 0
KHO1 210442Z 15010KT 29/09 A3014 RMK A01 T02870090  RH  029%=      5-min Rain = 0
KHO1 210443Z 15010KT 29/09 A3014 RMK A01 T02860090  RH  029%=      5-min Rain = 0
KHO1 210444Z 15011KT 29/09 A3014 RMK A01 T02860090  RH  029%=      5-min Rain = 0
KHO1 210445Z 15010KT 29/09 A3014 RMK A01 T02860090  RH  029%=      5-min Rain = 0
KHO1 210446Z 16010KT 29/09 A3014 RMK A01 T02860090  RH  029%=      5-min Rain = 0
KHO1 210447Z 16010KT 29/09 A3014 RMK A01 T02860090  RH  029%=      5-min Rain = 0
KHO1 210448Z 16009KT 29/09 A3014 RMK A01 T02850090  RH  029%=      5-min Rain = 0
KHO1 210449Z 16009KT 28/09 A3014 RMK A01 T02840090  RH  030%=      5-min Rain = 0
KHO1 210450Z 15010KT 28/09 A3014 RMK A01 T02830090  RH  030%=      5-min Rain = 0
KHO1 210451Z 15009KT 28/09 A3014 RMK A01 T02830090  RH  030%=      5-min Rain = 0
KHO1 210452Z 15009KT 28/09 A3014 RMK A01 T02820090  RH  030%=      5-min Rain = 0
KHO1 210453Z 15009KT 28/09 A3014 RMK A01 T02820090  RH  030%=      5-min Rain = 0
KHO1 210454Z 16011KT 28/09 A3014 RMK A01 T02820090  RH  030%=      5-min Rain = 0
KHO1 210455Z 15010KT 28/09 A3014 RMK A01 T02820090  RH  030%=      5-min Rain = 0
KHO1 210456Z 15009KT 28/09 A3014 RMK A01 T02820090  RH  030%=      5-min Rain = 0
KHO1 210457Z 15010KT 28/09 A3014 RMK A01 T02820090  RH  030%=      5-min Rain = 0
KHO1 210458Z 15009KT 28/09 A3014 RMK A01 T02810090  RH  030%=      5-min Rain = 0
KHO1 210459Z 15008KT 28/09 A3014 RMK A01 T02810090  RH  030%=      5-min Rain = 0

Page generated in 0.0717 seconds.